N2STN BGBW-CYYR
Flight info
| Callsign | N2STN |
|---|---|
| Flight time | 4h 13m |
| Altitude | 6000 |
| Route | NA DCT H5851 DCT DORYY/N0177F060 |
| Aircraft | S22T/L-SDGRY/S |
Departure
| Time | 2026-05-07 09:13 |
|---|---|
| Airport | Narsarsuaq Airport (BGBW) |
Arrival
| Time | 2026-05-07 13:26 |
|---|---|
| Airport | Goose Bay Airport (CYYR) |
| Time | Latitude | Longitude | Altitude | Speed | Heading |
|---|---|---|---|---|---|
| 2026-05-07 09:12 | 61.08759 | -45.64464 | 6070 ft | 119 kts | 230° |
| 2026-05-07 09:13 | 61.08356 | -45.65951 | 6467 ft | 116 kts | 230° |
| 2026-05-07 09:13 | 61.07976 | -45.67401 | 6836 ft | 114 kts | 230° |
| 2026-05-07 09:13 | 61.07604 | -45.68843 | 7167 ft | 114 kts | 230° |
| 2026-05-07 09:13 | 61.07231 | -45.70287 | 7489 ft | 114 kts | 230° |
| 2026-05-07 09:14 | 61.06854 | -45.71736 | 7808 ft | 115 kts | 230° |
| 2026-05-07 09:14 | 61.06457 | -45.73229 | 7989 ft | 128 kts | 230° |
| 2026-05-07 09:14 | 61.05978 | -45.74930 | 8000 ft | 145 kts | 230° |
| 2026-05-07 09:14 | 61.05419 | -45.76763 | 7998 ft | 155 kts | 227° |
| 2026-05-07 09:15 | 61.04793 | -45.78616 | 8000 ft | 159 kts | 227° |
| 2026-05-07 09:15 | 61.04125 | -45.80470 | 7995 ft | 160 kts | 221° |
| 2026-05-07 09:15 | 61.03356 | -45.82086 | 7975 ft | 154 kts | 218° |
| 2026-05-07 09:15 | 61.02657 | -45.83621 | 7977 ft | 139 kts | 220° |
| 2026-05-07 09:16 | 61.01998 | -45.85116 | 7984 ft | 146 kts | 220° |
| 2026-05-07 09:16 | 61.01294 | -45.86712 | 7978 ft | 153 kts | 219° |
| 2026-05-07 09:16 | 61.00593 | -45.88347 | 7966 ft | 154 kts | 221° |
| 2026-05-07 09:16 | 60.99894 | -45.89989 | 7981 ft | 152 kts | 219° |
| 2026-05-07 09:17 | 60.99149 | -45.91602 | 7990 ft | 160 kts | 220° |
| 2026-05-07 09:17 | 60.98390 | -45.93348 | 7979 ft | 166 kts | 221° |
| 2026-05-07 09:17 | 60.97628 | -45.95135 | 7973 ft | 165 kts | 221° |
| 2026-05-07 09:17 | 60.96864 | -45.96888 | 7975 ft | 163 kts | 221° |
| 2026-05-07 09:18 | 60.96099 | -45.98629 | 7975 ft | 164 kts | 220° |
| 2026-05-07 09:18 | 60.95333 | -46.00375 | 7974 ft | 165 kts | 220° |
| 2026-05-07 09:18 | 60.94566 | -46.02129 | 7975 ft | 165 kts | 220° |
| 2026-05-07 09:18 | 60.93795 | -46.03880 | 7978 ft | 166 kts | 221° |
| 2026-05-07 09:19 | 60.93036 | -46.05615 | 8005 ft | 165 kts | 220° |
| 2026-05-07 09:19 | 60.92265 | -46.07368 | 8012 ft | 165 kts | 220° |
| 2026-05-07 09:19 | 60.91495 | -46.09117 | 8024 ft | 165 kts | 220° |
| 2026-05-07 09:19 | 60.90725 | -46.10867 | 8045 ft | 165 kts | 220° |
| 2026-05-07 09:20 | 60.89954 | -46.12616 | 8053 ft | 165 kts | 220° |
| 2026-05-07 09:20 | 60.89185 | -46.14363 | 8066 ft | 165 kts | 220° |
| 2026-05-07 09:20 | 60.88418 | -46.16100 | 8082 ft | 164 kts | 219° |
| 2026-05-07 09:20 | 60.87650 | -46.17837 | 8089 ft | 164 kts | 219° |
| 2026-05-07 09:21 | 60.86883 | -46.19575 | 8098 ft | 164 kts | 219° |
| 2026-05-07 09:21 | 60.86119 | -46.21304 | 8088 ft | 164 kts | 219° |
| 2026-05-07 09:21 | 60.85356 | -46.23028 | 8090 ft | 163 kts | 219° |
| 2026-05-07 09:21 | 60.84593 | -46.24749 | 8101 ft | 164 kts | 219° |
| 2026-05-07 09:22 | 60.83817 | -46.26492 | 8116 ft | 165 kts | 220° |
| 2026-05-07 09:22 | 60.83044 | -46.28240 | 8143 ft | 165 kts | 220° |
| 2026-05-07 09:22 | 60.82270 | -46.29984 | 8165 ft | 166 kts | 219° |
| 2026-05-07 09:22 | 60.81491 | -46.31736 | 8219 ft | 166 kts | 219° |
| 2026-05-07 09:23 | 60.80714 | -46.33484 | 8266 ft | 166 kts | 219° |
| 2026-05-07 09:23 | 60.79935 | -46.35233 | 8350 ft | 166 kts | 219° |
| 2026-05-07 09:23 | 60.79154 | -46.36986 | 8380 ft | 167 kts | 219° |
| 2026-05-07 09:23 | 60.78372 | -46.38743 | 8375 ft | 167 kts | 219° |
| 2026-05-07 09:24 | 60.77586 | -46.40505 | 8462 ft | 167 kts | 219° |
| 2026-05-07 09:24 | 60.76801 | -46.42264 | 8562 ft | 168 kts | 219° |
| 2026-05-07 09:24 | 60.76013 | -46.44027 | 8626 ft | 168 kts | 219° |
| 2026-05-07 09:24 | 60.75225 | -46.45792 | 8695 ft | 168 kts | 219° |
| 2026-05-07 09:25 | 60.74433 | -46.47562 | 8739 ft | 168 kts | 219° |
| 2026-05-07 09:25 | 60.73642 | -46.49330 | 8781 ft | 169 kts | 219° |
| 2026-05-07 09:25 | 60.72847 | -46.51102 | 8828 ft | 169 kts | 219° |
| 2026-05-07 09:25 | 60.72052 | -46.52876 | 8866 ft | 169 kts | 219° |
| 2026-05-07 09:26 | 60.71255 | -46.54653 | 8897 ft | 170 kts | 219° |
| 2026-05-07 09:26 | 60.70457 | -46.56428 | 8930 ft | 170 kts | 219° |
| 2026-05-07 09:26 | 60.69673 | -46.58175 | 8957 ft | 169 kts | 219° |
| 2026-05-07 09:26 | 60.68874 | -46.59949 | 8973 ft | 170 kts | 219° |
| 2026-05-07 09:27 | 60.68074 | -46.61720 | 8968 ft | 170 kts | 219° |
| 2026-05-07 09:27 | 60.67274 | -46.63503 | 8985 ft | 170 kts | 219° |
| 2026-05-07 09:27 | 60.65672 | -46.67053 | 9012 ft | 170 kts | 219° |
| 2026-05-07 09:28 | 60.64870 | -46.68829 | 9023 ft | 170 kts | 219° |
| 2026-05-07 09:28 | 60.64069 | -46.70600 | 9028 ft | 170 kts | 219° |
| 2026-05-07 09:28 | 60.63268 | -46.72371 | 9033 ft | 170 kts | 219° |
| 2026-05-07 09:28 | 60.62469 | -46.74137 | 9035 ft | 170 kts | 219° |
| 2026-05-07 09:29 | 60.61667 | -46.75905 | 9033 ft | 170 kts | 219° |
| 2026-05-07 09:29 | 60.60867 | -46.77671 | 9032 ft | 169 kts | 219° |
| 2026-05-07 09:29 | 60.60070 | -46.79428 | 9019 ft | 169 kts | 219° |
| 2026-05-07 09:29 | 60.59272 | -46.81187 | 9017 ft | 169 kts | 219° |
| 2026-05-07 09:30 | 60.58473 | -46.82944 | 9018 ft | 169 kts | 219° |
| 2026-05-07 09:30 | 60.57676 | -46.84694 | 9017 ft | 169 kts | 219° |
| 2026-05-07 09:30 | 60.56875 | -46.86456 | 9017 ft | 169 kts | 219° |
| 2026-05-07 09:30 | 60.56078 | -46.88204 | 9014 ft | 169 kts | 219° |
| 2026-05-07 09:31 | 60.55281 | -46.89952 | 9014 ft | 169 kts | 219° |
| 2026-05-07 09:31 | 60.54483 | -46.91703 | 9016 ft | 168 kts | 219° |
| 2026-05-07 09:31 | 60.53686 | -46.93448 | 9019 ft | 168 kts | 219° |
| 2026-05-07 09:31 | 60.52891 | -46.95188 | 9022 ft | 168 kts | 219° |
| 2026-05-07 09:32 | 60.52099 | -46.96918 | 9026 ft | 167 kts | 219° |
| 2026-05-07 09:32 | 60.51311 | -46.98647 | 9058 ft | 166 kts | 217° |
| 2026-05-07 09:32 | 60.50534 | -47.00344 | 9077 ft | 164 kts | 218° |
| 2026-05-07 09:32 | 60.49757 | -47.02036 | 9077 ft | 164 kts | 219° |
| 2026-05-07 09:33 | 60.48976 | -47.03737 | 9081 ft | 164 kts | 217° |
| 2026-05-07 09:33 | 60.48199 | -47.05430 | 9085 ft | 164 kts | 219° |
| 2026-05-07 09:33 | 60.47417 | -47.07123 | 9083 ft | 165 kts | 219° |
| 2026-05-07 09:33 | 60.46639 | -47.08823 | 9086 ft | 164 kts | 217° |
| 2026-05-07 09:34 | 60.45863 | -47.10520 | 9084 ft | 164 kts | 219° |
| 2026-05-07 09:34 | 60.45090 | -47.12211 | 9086 ft | 162 kts | 216° |
| 2026-05-07 09:34 | 60.44314 | -47.13871 | 9084 ft | 162 kts | 217° |
| 2026-05-07 09:34 | 60.43544 | -47.15550 | 9082 ft | 163 kts | 216° |
| 2026-05-07 09:35 | 60.42767 | -47.17212 | 9066 ft | 163 kts | 219° |
| 2026-05-07 09:35 | 60.41990 | -47.18902 | 9068 ft | 164 kts | 217° |
| 2026-05-07 09:35 | 60.41211 | -47.20590 | 9062 ft | 164 kts | 217° |
| 2026-05-07 09:35 | 60.40435 | -47.22278 | 9056 ft | 164 kts | 219° |
| 2026-05-07 09:36 | 60.39657 | -47.23965 | 9055 ft | 164 kts | 217° |
| 2026-05-07 09:36 | 60.38880 | -47.25629 | 9063 ft | 162 kts | 216° |
| 2026-05-07 09:36 | 60.38103 | -47.27298 | 9067 ft | 164 kts | 219° |
| 2026-05-07 09:36 | 60.37331 | -47.28993 | 9076 ft | 164 kts | 217° |
| 2026-05-07 09:37 | 60.36544 | -47.30662 | 9076 ft | 165 kts | 219° |
| 2026-05-07 09:37 | 60.35765 | -47.32334 | 9075 ft | 165 kts | 218° |
| 2026-05-07 09:37 | 60.34980 | -47.34022 | 9096 ft | 164 kts | 219° |
| 2026-05-07 09:37 | 60.34192 | -47.35734 | 9117 ft | 164 kts | 217° |
| 2026-05-07 09:38 | 60.33414 | -47.37399 | 9135 ft | 163 kts | 217° |
| 2026-05-07 09:38 | 60.32645 | -47.39041 | 9142 ft | 163 kts | 218° |
| 2026-05-07 09:38 | 60.31865 | -47.40707 | 9156 ft | 164 kts | 216° |
| 2026-05-07 09:38 | 60.31336 | -47.41837 | 9154 ft | 164 kts | 217° |
| 2026-05-07 09:39 | 60.30295 | -47.44063 | 9164 ft | 166 kts | 219° |
| 2026-05-07 09:39 | 60.29510 | -47.45765 | 9202 ft | 161 kts | 218° |
| 2026-05-07 09:39 | 60.28748 | -47.47394 | 9199 ft | 162 kts | 218° |
| 2026-05-07 09:39 | 60.27982 | -47.49035 | 9240 ft | 158 kts | 214° |
| 2026-05-07 09:40 | 60.27225 | -47.50640 | 9240 ft | 159 kts | 218° |
| 2026-05-07 09:40 | 60.26463 | -47.52270 | 9235 ft | 161 kts | 217° |
| 2026-05-07 09:40 | 60.25699 | -47.53905 | 9223 ft | 160 kts | 218° |
| 2026-05-07 09:40 | 60.24926 | -47.55534 | 9207 ft | 162 kts | 217° |
| 2026-05-07 09:41 | 60.24148 | -47.57188 | 9203 ft | 163 kts | 215° |
| 2026-05-07 09:41 | 60.23382 | -47.58849 | 9213 ft | 162 kts | 216° |
| 2026-05-07 09:41 | 60.22609 | -47.60493 | 9211 ft | 161 kts | 214° |
| 2026-05-07 09:41 | 60.22095 | -47.61569 | 9218 ft | 160 kts | 214° |
| 2026-05-07 09:42 | 60.21321 | -47.63197 | 9218 ft | 159 kts | 217° |
| 2026-05-07 09:42 | 60.20555 | -47.64795 | 9209 ft | 162 kts | 215° |
| 2026-05-07 09:42 | 60.19788 | -47.66447 | 9216 ft | 162 kts | 219° |
| 2026-05-07 09:42 | 60.19005 | -47.68113 | 9204 ft | 165 kts | 218° |
| 2026-05-07 09:43 | 60.18214 | -47.69789 | 9221 ft | 165 kts | 214° |
| 2026-05-07 09:43 | 60.17428 | -47.71453 | 9218 ft | 164 kts | 219° |
| 2026-05-07 09:43 | 60.16652 | -47.73126 | 9233 ft | 162 kts | 215° |
| 2026-05-07 09:43 | 60.15859 | -47.74755 | 9244 ft | 163 kts | 214° |
| 2026-05-07 09:44 | 60.15075 | -47.76411 | 9241 ft | 165 kts | 219° |
| 2026-05-07 09:44 | 60.14290 | -47.78067 | 9258 ft | 164 kts | 218° |
| 2026-05-07 09:44 | 60.13496 | -47.79727 | 9258 ft | 167 kts | 219° |
| 2026-05-07 09:44 | 60.12693 | -47.81433 | 9278 ft | 167 kts | 216° |
| 2026-05-07 09:45 | 60.11898 | -47.83113 | 9295 ft | 166 kts | 219° |
| 2026-05-07 09:45 | 60.11102 | -47.84795 | 9321 ft | 165 kts | 214° |
| 2026-05-07 09:45 | 60.10313 | -47.86448 | 9352 ft | 163 kts | 214° |
| 2026-05-07 09:45 | 60.09525 | -47.88090 | 9356 ft | 165 kts | 215° |
| 2026-05-07 09:46 | 60.08734 | -47.89761 | 9390 ft | 164 kts | 217° |
| 2026-05-07 09:46 | 60.07936 | -47.91423 | 9424 ft | 165 kts | 218° |
| 2026-05-07 09:46 | 60.07144 | -47.93092 | 9522 ft | 166 kts | 220° |
| 2026-05-07 09:46 | 60.06354 | -47.94744 | 9643 ft | 163 kts | 219° |
| 2026-05-07 09:47 | 60.05570 | -47.96378 | 9741 ft | 163 kts | 218° |
| 2026-05-07 09:47 | 60.04791 | -47.98012 | 9838 ft | 161 kts | 216° |
| 2026-05-07 09:47 | 60.04015 | -47.99636 | 9905 ft | 162 kts | 217° |
| 2026-05-07 09:47 | 60.03229 | -48.01287 | 9965 ft | 164 kts | 218° |
| 2026-05-07 09:48 | 60.02451 | -48.02902 | 10041 ft | 165 kts | 220° |
| 2026-05-07 09:48 | 60.01632 | -48.04595 | 10116 ft | 167 kts | 218° |
| 2026-05-07 09:48 | 60.00833 | -48.06266 | 10180 ft | 166 kts | 218° |
| 2026-05-07 09:48 | 60.00039 | -48.07919 | 10221 ft | 167 kts | 218° |
| 2026-05-07 09:49 | 59.99235 | -48.09594 | 10289 ft | 164 kts | 218° |
| 2026-05-07 09:49 | 59.98449 | -48.11218 | 10339 ft | 164 kts | 219° |
| 2026-05-07 09:49 | 59.97650 | -48.12871 | 10400 ft | 166 kts | 218° |
| 2026-05-07 09:49 | 59.96855 | -48.14522 | 10464 ft | 166 kts | 221° |
| 2026-05-07 09:50 | 59.96048 | -48.16203 | 10512 ft | 169 kts | 221° |
| 2026-05-07 09:50 | 59.95236 | -48.17897 | 10584 ft | 166 kts | 218° |
| 2026-05-07 09:50 | 59.94432 | -48.19551 | 10645 ft | 167 kts | 221° |
| 2026-05-07 09:50 | 59.93641 | -48.21207 | 10727 ft | 163 kts | 218° |
| 2026-05-07 09:51 | 59.92853 | -48.22819 | 10788 ft | 162 kts | 218° |
| 2026-05-07 09:51 | 59.92063 | -48.24443 | 10821 ft | 164 kts | 218° |
| 2026-05-07 09:51 | 59.91274 | -48.26072 | 10877 ft | 165 kts | 221° |
| 2026-05-07 09:51 | 59.90478 | -48.27722 | 10943 ft | 165 kts | 221° |
| 2026-05-07 09:52 | 59.89678 | -48.29363 | 11002 ft | 165 kts | 220° |
| 2026-05-07 09:52 | 59.88881 | -48.31006 | 11065 ft | 165 kts | 221° |
| 2026-05-07 09:52 | 59.88089 | -48.32647 | 11145 ft | 162 kts | 219° |
| 2026-05-07 09:52 | 59.87315 | -48.34240 | 11252 ft | 158 kts | 219° |
| 2026-05-07 09:53 | 59.86535 | -48.35830 | 11315 ft | 162 kts | 220° |
| 2026-05-07 09:53 | 59.85757 | -48.37431 | 11404 ft | 160 kts | 219° |
| 2026-05-07 09:53 | 59.84965 | -48.39041 | 11456 ft | 165 kts | 222° |
| 2026-05-07 09:53 | 59.84167 | -48.40691 | 11531 ft | 165 kts | 222° |
| 2026-05-07 09:54 | 59.83383 | -48.42305 | 11613 ft | 162 kts | 221° |
| 2026-05-07 09:54 | 59.82597 | -48.43913 | 11707 ft | 160 kts | 220° |
| 2026-05-07 09:54 | 59.81823 | -48.45503 | 11780 ft | 159 kts | 220° |
| 2026-05-07 09:54 | 59.81051 | -48.47074 | 11815 ft | 161 kts | 221° |
| 2026-05-07 09:55 | 59.80258 | -48.48680 | 11822 ft | 163 kts | 220° |
| 2026-05-07 09:55 | 59.79461 | -48.50316 | 11817 ft | 167 kts | 222° |
| 2026-05-07 09:55 | 59.78642 | -48.51987 | 11817 ft | 171 kts | 222° |
| 2026-05-07 09:55 | 59.77826 | -48.53672 | 11826 ft | 168 kts | 221° |
| 2026-05-07 09:56 | 59.77005 | -48.55328 | 11831 ft | 168 kts | 220° |
| 2026-05-07 09:56 | 59.76200 | -48.56973 | 11835 ft | 164 kts | 220° |
| 2026-05-07 09:56 | 59.75402 | -48.58594 | 11826 ft | 164 kts | 222° |
| 2026-05-07 09:56 | 59.74600 | -48.60227 | 11815 ft | 165 kts | 221° |
| 2026-05-07 09:57 | 59.73787 | -48.61875 | 11808 ft | 168 kts | 221° |
| 2026-05-07 09:57 | 59.72967 | -48.63532 | 11807 ft | 170 kts | 222° |
| 2026-05-07 09:57 | 59.72150 | -48.65191 | 11812 ft | 168 kts | 222° |
| 2026-05-07 09:57 | 59.71331 | -48.66863 | 11812 ft | 169 kts | 221° |
| 2026-05-07 09:58 | 59.70529 | -48.68484 | 11821 ft | 165 kts | 220° |
| 2026-05-07 09:58 | 59.69716 | -48.70123 | 11813 ft | 166 kts | 221° |
| 2026-05-07 09:58 | 59.68903 | -48.71772 | 11812 ft | 167 kts | 221° |
| 2026-05-07 09:58 | 59.68098 | -48.73388 | 11808 ft | 170 kts | 222° |
| 2026-05-07 09:59 | 59.67267 | -48.75068 | 11810 ft | 171 kts | 222° |
| 2026-05-07 09:59 | 59.66439 | -48.76743 | 11804 ft | 170 kts | 222° |
| 2026-05-07 09:59 | 59.65611 | -48.78413 | 11804 ft | 170 kts | 222° |
| 2026-05-07 09:59 | 59.64779 | -48.80089 | 11804 ft | 171 kts | 222° |
| 2026-05-07 10:00 | 59.63947 | -48.81764 | 11801 ft | 171 kts | 222° |
| 2026-05-07 10:00 | 59.63118 | -48.83437 | 11800 ft | 171 kts | 222° |
| 2026-05-07 10:00 | 59.62280 | -48.85115 | 11799 ft | 172 kts | 223° |
| 2026-05-07 10:00 | 59.61440 | -48.86807 | 11800 ft | 172 kts | 222° |
| 2026-05-07 10:01 | 59.60602 | -48.88486 | 11801 ft | 172 kts | 221° |
| 2026-05-07 10:01 | 59.59762 | -48.90167 | 11805 ft | 170 kts | 222° |
| 2026-05-07 10:01 | 59.58934 | -48.91831 | 11803 ft | 170 kts | 221° |
| 2026-05-07 10:01 | 59.58102 | -48.93494 | 11790 ft | 171 kts | 221° |
| 2026-05-07 10:02 | 59.57273 | -48.95163 | 11790 ft | 171 kts | 222° |
| 2026-05-07 10:02 | 59.56436 | -48.96830 | 11789 ft | 172 kts | 222° |
| 2026-05-07 10:02 | 59.55594 | -48.98512 | 11791 ft | 171 kts | 221° |
| 2026-05-07 10:02 | 59.54757 | -49.00180 | 11793 ft | 171 kts | 221° |
| 2026-05-07 10:03 | 59.53923 | -49.01853 | 11791 ft | 170 kts | 221° |
| 2026-05-07 10:03 | 59.53095 | -49.03501 | 11789 ft | 169 kts | 222° |
| 2026-05-07 10:03 | 59.52264 | -49.05163 | 11790 ft | 170 kts | 222° |
| 2026-05-07 10:03 | 59.51429 | -49.06812 | 11786 ft | 171 kts | 222° |
| 2026-05-07 10:04 | 59.50587 | -49.08486 | 11789 ft | 172 kts | 222° |
| 2026-05-07 10:04 | 59.49747 | -49.10163 | 11792 ft | 171 kts | 222° |
| 2026-05-07 10:04 | 59.48906 | -49.11830 | 11782 ft | 171 kts | 221° |
| 2026-05-07 10:04 | 59.48070 | -49.13490 | 11782 ft | 170 kts | 221° |
| 2026-05-07 10:05 | 59.47238 | -49.15143 | 11782 ft | 171 kts | 222° |
| 2026-05-07 10:05 | 59.46395 | -49.16815 | 11781 ft | 172 kts | 222° |
| 2026-05-07 10:05 | 59.45550 | -49.18491 | 11781 ft | 174 kts | 222° |
| 2026-05-07 10:05 | 59.44688 | -49.20187 | 11783 ft | 175 kts | 223° |
| 2026-05-07 10:06 | 59.43844 | -49.21858 | 11784 ft | 175 kts | 223° |
| 2026-05-07 10:06 | 59.42989 | -49.23548 | 11785 ft | 173 kts | 222° |
| 2026-05-07 10:06 | 59.42131 | -49.25242 | 11784 ft | 173 kts | 222° |
| 2026-05-07 10:06 | 59.41284 | -49.26914 | 11806 ft | 172 kts | 222° |
| 2026-05-07 10:07 | 59.40450 | -49.28557 | 11772 ft | 173 kts | 223° |
| 2026-05-07 10:07 | 59.39601 | -49.30231 | 11771 ft | 173 kts | 223° |
| 2026-05-07 10:07 | 59.38751 | -49.31905 | 11772 ft | 173 kts | 222° |
| 2026-05-07 10:07 | 59.37902 | -49.33572 | 11771 ft | 173 kts | 223° |
| 2026-05-07 10:08 | 59.37057 | -49.35235 | 11772 ft | 172 kts | 222° |
| 2026-05-07 10:08 | 59.36210 | -49.36897 | 11771 ft | 172 kts | 223° |
| 2026-05-07 10:08 | 59.35366 | -49.38554 | 11770 ft | 172 kts | 222° |
| 2026-05-07 10:08 | 59.34519 | -49.40212 | 11769 ft | 172 kts | 223° |
| 2026-05-07 10:09 | 59.33671 | -49.41875 | 11766 ft | 173 kts | 222° |
| 2026-05-07 10:09 | 59.32821 | -49.43539 | 11766 ft | 173 kts | 223° |
| 2026-05-07 10:09 | 59.31974 | -49.45200 | 11765 ft | 173 kts | 222° |
| 2026-05-07 10:09 | 59.31122 | -49.46864 | 11765 ft | 172 kts | 222° |
| 2026-05-07 10:10 | 59.30274 | -49.48521 | 11760 ft | 173 kts | 222° |
| 2026-05-07 10:10 | 59.29426 | -49.50175 | 11760 ft | 172 kts | 222° |
| 2026-05-07 10:10 | 59.28576 | -49.51837 | 11759 ft | 173 kts | 223° |
| 2026-05-07 10:10 | 59.27725 | -49.53494 | 11759 ft | 172 kts | 222° |
| 2026-05-07 10:11 | 59.26872 | -49.55153 | 11760 ft | 173 kts | 222° |
| 2026-05-07 10:11 | 59.26023 | -49.56809 | 11761 ft | 172 kts | 222° |
| 2026-05-07 10:11 | 59.25173 | -49.58459 | 11761 ft | 172 kts | 223° |
| 2026-05-07 10:11 | 59.24324 | -49.60110 | 11761 ft | 173 kts | 222° |
| 2026-05-07 10:12 | 59.23471 | -49.61768 | 11756 ft | 173 kts | 223° |
| 2026-05-07 10:12 | 59.22617 | -49.63424 | 11752 ft | 173 kts | 223° |
| 2026-05-07 10:12 | 59.21764 | -49.65081 | 11756 ft | 173 kts | 223° |
| 2026-05-07 10:12 | 59.20909 | -49.66736 | 11750 ft | 173 kts | 223° |
| 2026-05-07 10:13 | 59.20055 | -49.68389 | 11752 ft | 173 kts | 223° |
| 2026-05-07 10:13 | 59.19201 | -49.70041 | 11754 ft | 173 kts | 223° |
| 2026-05-07 10:13 | 59.18346 | -49.71693 | 11756 ft | 173 kts | 223° |
| 2026-05-07 10:13 | 59.17492 | -49.73344 | 11751 ft | 173 kts | 223° |
| 2026-05-07 10:14 | 59.16638 | -49.74992 | 11755 ft | 173 kts | 223° |
| 2026-05-07 10:14 | 59.15783 | -49.76642 | 11748 ft | 173 kts | 223° |
| 2026-05-07 10:14 | 59.14931 | -49.78285 | 11741 ft | 173 kts | 223° |
| 2026-05-07 10:14 | 59.14075 | -49.79928 | 11752 ft | 173 kts | 223° |
| 2026-05-07 10:15 | 59.13232 | -49.81552 | 11747 ft | 173 kts | 223° |
| 2026-05-07 10:15 | 59.12366 | -49.83220 | 11746 ft | 173 kts | 223° |
| 2026-05-07 10:15 | 59.11522 | -49.84839 | 11743 ft | 173 kts | 223° |
| 2026-05-07 10:15 | 59.10668 | -49.86482 | 11750 ft | 173 kts | 223° |
| 2026-05-07 10:16 | 59.09814 | -49.88120 | 11747 ft | 173 kts | 223° |
| 2026-05-07 10:16 | 59.08957 | -49.89758 | 11737 ft | 173 kts | 223° |
| 2026-05-07 10:16 | 59.08103 | -49.91398 | 11744 ft | 173 kts | 223° |
| 2026-05-07 10:16 | 59.07248 | -49.93036 | 11740 ft | 173 kts | 223° |
| 2026-05-07 10:17 | 59.06390 | -49.94678 | 11737 ft | 173 kts | 223° |
| 2026-05-07 10:17 | 59.05534 | -49.96315 | 11739 ft | 173 kts | 223° |
| 2026-05-07 10:17 | 59.04679 | -49.97946 | 11736 ft | 173 kts | 223° |
| 2026-05-07 10:17 | 59.03821 | -49.99585 | 11739 ft | 173 kts | 223° |
| 2026-05-07 10:18 | 59.02963 | -50.01222 | 11738 ft | 173 kts | 222° |
| 2026-05-07 10:18 | 59.02107 | -50.02853 | 11744 ft | 173 kts | 223° |
| 2026-05-07 10:18 | 59.01249 | -50.04487 | 11741 ft | 173 kts | 223° |
| 2026-05-07 10:18 | 59.00393 | -50.06117 | 11738 ft | 172 kts | 223° |
| 2026-05-07 10:19 | 58.99537 | -50.07745 | 11735 ft | 172 kts | 223° |
| 2026-05-07 10:19 | 58.98680 | -50.09372 | 11735 ft | 172 kts | 223° |
| 2026-05-07 10:19 | 58.97826 | -50.10995 | 11739 ft | 172 kts | 223° |
| 2026-05-07 10:19 | 58.96972 | -50.12615 | 11734 ft | 172 kts | 223° |
| 2026-05-07 10:20 | 58.96116 | -50.14239 | 11737 ft | 172 kts | 223° |
| 2026-05-07 10:20 | 58.95261 | -50.15858 | 11742 ft | 172 kts | 223° |
| 2026-05-07 10:20 | 58.94406 | -50.17478 | 11735 ft | 172 kts | 223° |
| 2026-05-07 10:20 | 58.93549 | -50.19101 | 11739 ft | 172 kts | 223° |
| 2026-05-07 10:21 | 58.92692 | -50.20722 | 11735 ft | 172 kts | 223° |
| 2026-05-07 10:21 | 58.91834 | -50.22337 | 11738 ft | 172 kts | 223° |
| 2026-05-07 10:21 | 58.90979 | -50.23956 | 11741 ft | 172 kts | 223° |
| 2026-05-07 10:21 | 58.90122 | -50.25572 | 11731 ft | 172 kts | 223° |
| 2026-05-07 10:22 | 58.89265 | -50.27190 | 11732 ft | 172 kts | 223° |
| 2026-05-07 10:22 | 58.88417 | -50.28785 | 11732 ft | 172 kts | 223° |
| 2026-05-07 10:22 | 58.87560 | -50.30398 | 11729 ft | 172 kts | 223° |
| 2026-05-07 10:22 | 58.86702 | -50.32012 | 11732 ft | 172 kts | 223° |
| 2026-05-07 10:23 | 58.85843 | -50.33626 | 11729 ft | 172 kts | 223° |
| 2026-05-07 10:23 | 58.84984 | -50.35240 | 11728 ft | 172 kts | 223° |
| 2026-05-07 10:23 | 58.84127 | -50.36850 | 11731 ft | 172 kts | 223° |
| 2026-05-07 10:23 | 58.83269 | -50.38458 | 11727 ft | 172 kts | 223° |
| 2026-05-07 10:24 | 58.82410 | -50.40070 | 11725 ft | 172 kts | 223° |
| 2026-05-07 10:24 | 58.81552 | -50.41677 | 11730 ft | 172 kts | 223° |
| 2026-05-07 10:24 | 58.80691 | -50.43284 | 11734 ft | 172 kts | 223° |
| 2026-05-07 10:24 | 58.79833 | -50.44891 | 11733 ft | 172 kts | 223° |
| 2026-05-07 10:25 | 58.78976 | -50.46490 | 11728 ft | 171 kts | 223° |
| 2026-05-07 10:25 | 58.78121 | -50.48091 | 11728 ft | 171 kts | 223° |
| 2026-05-07 10:25 | 58.77266 | -50.49685 | 11730 ft | 171 kts | 223° |
| 2026-05-07 10:25 | 58.76410 | -50.51280 | 11728 ft | 171 kts | 223° |
| 2026-05-07 10:26 | 58.75554 | -50.52876 | 11726 ft | 171 kts | 223° |
| 2026-05-07 10:26 | 58.74699 | -50.54470 | 11725 ft | 171 kts | 223° |
| 2026-05-07 10:26 | 58.73843 | -50.56063 | 11731 ft | 171 kts | 223° |
| 2026-05-07 10:26 | 58.72987 | -50.57655 | 11728 ft | 171 kts | 223° |
| 2026-05-07 10:27 | 58.72131 | -50.59244 | 11725 ft | 171 kts | 223° |
| 2026-05-07 10:27 | 58.71275 | -50.60834 | 11721 ft | 171 kts | 223° |
| 2026-05-07 10:27 | 58.70418 | -50.62424 | 11730 ft | 171 kts | 223° |
| 2026-05-07 10:27 | 58.69562 | -50.64009 | 11728 ft | 171 kts | 223° |
| 2026-05-07 10:28 | 58.68995 | -50.65062 | 11723 ft | 171 kts | 223° |
| 2026-05-07 10:28 | 58.68139 | -50.66648 | 11724 ft | 171 kts | 223° |
| 2026-05-07 10:28 | 58.67283 | -50.68232 | 11724 ft | 171 kts | 223° |
| 2026-05-07 10:28 | 58.66427 | -50.69815 | 11729 ft | 171 kts | 223° |
| 2026-05-07 10:29 | 58.65568 | -50.71399 | 11731 ft | 171 kts | 223° |
| 2026-05-07 10:29 | 58.64713 | -50.72979 | 11727 ft | 171 kts | 223° |
| 2026-05-07 10:29 | 58.63855 | -50.74559 | 11731 ft | 171 kts | 223° |
| 2026-05-07 10:30 | 58.62140 | -50.77722 | 11722 ft | 171 kts | 223° |
| 2026-05-07 10:30 | 58.61283 | -50.79302 | 11720 ft | 171 kts | 223° |
| 2026-05-07 10:30 | 58.60425 | -50.80877 | 11716 ft | 171 kts | 223° |
| 2026-05-07 10:30 | 58.59568 | -50.82457 | 11715 ft | 171 kts | 223° |
| 2026-05-07 10:31 | 58.58707 | -50.84038 | 11717 ft | 171 kts | 223° |
| 2026-05-07 10:31 | 58.57850 | -50.85611 | 11721 ft | 171 kts | 223° |
| 2026-05-07 10:31 | 58.56991 | -50.87186 | 11716 ft | 171 kts | 223° |
| 2026-05-07 10:31 | 58.56133 | -50.88761 | 11716 ft | 171 kts | 223° |
| 2026-05-07 10:32 | 58.55283 | -50.90316 | 11713 ft | 171 kts | 223° |
| 2026-05-07 10:32 | 58.54424 | -50.91889 | 11711 ft | 171 kts | 223° |
| 2026-05-07 10:32 | 58.53564 | -50.93463 | 11715 ft | 171 kts | 223° |
| 2026-05-07 10:32 | 58.52704 | -50.95036 | 11717 ft | 171 kts | 222° |
| 2026-05-07 10:33 | 58.51844 | -50.96606 | 11711 ft | 171 kts | 223° |
| 2026-05-07 10:33 | 58.50985 | -50.98174 | 11715 ft | 171 kts | 222° |
| 2026-05-07 10:33 | 58.50126 | -50.99757 | 11712 ft | 171 kts | 224° |
| 2026-05-07 10:33 | 58.49416 | -51.01584 | 11710 ft | 172 kts | 234° |
| 2026-05-07 10:34 | 58.48738 | -51.03472 | 11704 ft | 172 kts | 232° |
| 2026-05-07 10:34 | 58.48053 | -51.05346 | 11707 ft | 172 kts | 232° |
| 2026-05-07 10:34 | 58.47371 | -51.07223 | 11710 ft | 172 kts | 232° |
| 2026-05-07 10:34 | 58.46688 | -51.09101 | 11708 ft | 172 kts | 232° |
| 2026-05-07 10:35 | 58.46006 | -51.10979 | 11708 ft | 172 kts | 232° |
| 2026-05-07 10:35 | 58.45324 | -51.12855 | 11710 ft | 172 kts | 232° |
| 2026-05-07 10:35 | 58.44640 | -51.14735 | 11707 ft | 172 kts | 232° |
| 2026-05-07 10:35 | 58.43959 | -51.16606 | 11709 ft | 172 kts | 232° |
| 2026-05-07 10:36 | 58.43284 | -51.18457 | 11707 ft | 172 kts | 232° |
| 2026-05-07 10:36 | 58.42603 | -51.20327 | 11703 ft | 172 kts | 232° |
| 2026-05-07 10:36 | 58.41919 | -51.22199 | 11705 ft | 172 kts | 232° |
| 2026-05-07 10:36 | 58.41235 | -51.24071 | 11703 ft | 172 kts | 232° |
| 2026-05-07 10:37 | 58.40552 | -51.25939 | 11705 ft | 172 kts | 232° |
| 2026-05-07 10:37 | 58.39870 | -51.27806 | 11712 ft | 172 kts | 232° |
| 2026-05-07 10:37 | 58.39190 | -51.29661 | 11714 ft | 171 kts | 233° |
| 2026-05-07 10:37 | 58.38510 | -51.31517 | 11711 ft | 170 kts | 233° |
| 2026-05-07 10:38 | 58.37833 | -51.33363 | 11712 ft | 170 kts | 233° |
| 2026-05-07 10:38 | 58.37157 | -51.35209 | 11706 ft | 170 kts | 232° |
| 2026-05-07 10:38 | 58.36482 | -51.37044 | 11711 ft | 169 kts | 232° |
| 2026-05-07 10:38 | 58.35805 | -51.38886 | 11708 ft | 169 kts | 232° |
| 2026-05-07 10:39 | 58.35129 | -51.40722 | 11707 ft | 169 kts | 232° |
| 2026-05-07 10:39 | 58.34453 | -51.42560 | 11706 ft | 169 kts | 232° |
| 2026-05-07 10:39 | 58.33776 | -51.44396 | 11706 ft | 169 kts | 232° |
| 2026-05-07 10:39 | 58.33101 | -51.46228 | 11706 ft | 169 kts | 232° |
| 2026-05-07 10:40 | 58.32424 | -51.48062 | 11707 ft | 169 kts | 232° |
| 2026-05-07 10:40 | 58.31747 | -51.49895 | 11702 ft | 169 kts | 232° |
| 2026-05-07 10:40 | 58.31071 | -51.51726 | 11707 ft | 169 kts | 232° |
| 2026-05-07 10:40 | 58.30394 | -51.53557 | 11706 ft | 169 kts | 232° |
| 2026-05-07 10:41 | 58.29715 | -51.55388 | 11701 ft | 169 kts | 232° |
| 2026-05-07 10:41 | 58.29039 | -51.57216 | 11706 ft | 169 kts | 232° |
| 2026-05-07 10:41 | 58.28359 | -51.59049 | 11696 ft | 169 kts | 232° |
| 2026-05-07 10:41 | 58.27682 | -51.60875 | 11698 ft | 169 kts | 232° |
| 2026-05-07 10:42 | 58.27005 | -51.62700 | 11698 ft | 169 kts | 232° |
| 2026-05-07 10:42 | 58.26326 | -51.64525 | 11698 ft | 169 kts | 232° |
| 2026-05-07 10:42 | 58.25647 | -51.66351 | 11698 ft | 169 kts | 232° |
| 2026-05-07 10:42 | 58.24968 | -51.68176 | 11698 ft | 169 kts | 232° |
| 2026-05-07 10:43 | 58.24288 | -51.70003 | 11694 ft | 169 kts | 232° |
| 2026-05-07 10:43 | 58.23608 | -51.71828 | 11697 ft | 169 kts | 232° |
| 2026-05-07 10:43 | 58.22931 | -51.73646 | 11697 ft | 169 kts | 232° |
| 2026-05-07 10:43 | 58.22249 | -51.75472 | 11697 ft | 169 kts | 232° |
| 2026-05-07 10:44 | 58.21570 | -51.77290 | 11704 ft | 169 kts | 232° |
| 2026-05-07 10:44 | 58.20896 | -51.79097 | 11704 ft | 168 kts | 232° |
| 2026-05-07 10:44 | 58.20220 | -51.80903 | 11704 ft | 167 kts | 232° |
| 2026-05-07 10:44 | 58.19547 | -51.82702 | 11703 ft | 167 kts | 232° |
| 2026-05-07 10:45 | 58.18876 | -51.84492 | 11703 ft | 167 kts | 232° |
| 2026-05-07 10:45 | 58.18201 | -51.86290 | 11702 ft | 167 kts | 232° |
| 2026-05-07 10:45 | 58.17528 | -51.88086 | 11702 ft | 167 kts | 232° |
| 2026-05-07 10:45 | 58.16855 | -51.89877 | 11701 ft | 167 kts | 232° |
| 2026-05-07 10:46 | 58.16182 | -51.91670 | 11701 ft | 167 kts | 232° |
| 2026-05-07 10:46 | 58.15510 | -51.93458 | 11701 ft | 167 kts | 232° |
| 2026-05-07 10:46 | 58.14835 | -51.95252 | 11700 ft | 167 kts | 232° |
| 2026-05-07 10:46 | 58.14162 | -51.97036 | 11700 ft | 167 kts | 232° |
| 2026-05-07 10:47 | 58.13488 | -51.98826 | 11697 ft | 167 kts | 232° |
| 2026-05-07 10:47 | 58.12823 | -52.00589 | 11697 ft | 167 kts | 232° |
| 2026-05-07 10:47 | 58.12140 | -52.02400 | 11696 ft | 167 kts | 232° |
| 2026-05-07 10:47 | 58.11465 | -52.04185 | 11696 ft | 167 kts | 232° |
| 2026-05-07 10:48 | 58.10790 | -52.05971 | 11696 ft | 167 kts | 232° |
| 2026-05-07 10:48 | 58.10123 | -52.07733 | 11696 ft | 167 kts | 232° |
| 2026-05-07 10:48 | 58.09449 | -52.09516 | 11695 ft | 167 kts | 232° |
| 2026-05-07 10:48 | 58.08765 | -52.11323 | 11695 ft | 167 kts | 232° |
| 2026-05-07 10:49 | 58.08097 | -52.13083 | 11695 ft | 167 kts | 232° |
| 2026-05-07 10:49 | 58.07421 | -52.14865 | 11695 ft | 167 kts | 232° |
| 2026-05-07 10:49 | 58.06744 | -52.16648 | 11694 ft | 167 kts | 232° |
| 2026-05-07 10:49 | 58.06068 | -52.18427 | 11694 ft | 167 kts | 232° |
| 2026-05-07 10:50 | 58.05391 | -52.20208 | 11694 ft | 167 kts | 232° |
| 2026-05-07 10:50 | 58.04713 | -52.21988 | 11694 ft | 167 kts | 232° |
| 2026-05-07 10:50 | 58.04035 | -52.23767 | 11694 ft | 167 kts | 232° |
| 2026-05-07 10:50 | 58.03357 | -52.25548 | 11698 ft | 167 kts | 232° |
| 2026-05-07 10:51 | 58.02681 | -52.27321 | 11698 ft | 166 kts | 232° |
| 2026-05-07 10:51 | 58.02006 | -52.29092 | 11697 ft | 166 kts | 232° |
| 2026-05-07 10:51 | 58.01331 | -52.30858 | 11697 ft | 166 kts | 232° |
| 2026-05-07 10:51 | 58.00655 | -52.32627 | 11696 ft | 166 kts | 232° |
| 2026-05-07 10:52 | 57.99979 | -52.34391 | 11696 ft | 166 kts | 232° |
| 2026-05-07 10:52 | 57.99305 | -52.36153 | 11696 ft | 166 kts | 232° |
| 2026-05-07 10:52 | 57.98629 | -52.37916 | 11696 ft | 166 kts | 232° |
| 2026-05-07 10:52 | 57.97953 | -52.39680 | 11695 ft | 166 kts | 232° |
| 2026-05-07 10:53 | 57.97278 | -52.41441 | 11695 ft | 166 kts | 232° |
| 2026-05-07 10:53 | 57.96600 | -52.43205 | 11695 ft | 166 kts | 232° |
| 2026-05-07 10:53 | 57.95924 | -52.44966 | 11692 ft | 166 kts | 232° |
| 2026-05-07 10:53 | 57.95248 | -52.46724 | 11692 ft | 166 kts | 232° |
| 2026-05-07 10:54 | 57.94570 | -52.48485 | 11694 ft | 166 kts | 232° |
| 2026-05-07 10:54 | 57.93892 | -52.50246 | 11694 ft | 166 kts | 232° |
| 2026-05-07 10:54 | 57.93214 | -52.52003 | 11694 ft | 166 kts | 232° |
| 2026-05-07 10:54 | 57.92537 | -52.53762 | 11693 ft | 166 kts | 232° |
| 2026-05-07 10:55 | 57.91857 | -52.55523 | 11691 ft | 166 kts | 232° |
| 2026-05-07 10:55 | 57.91178 | -52.57280 | 11690 ft | 166 kts | 232° |
| 2026-05-07 10:55 | 57.90499 | -52.59038 | 11690 ft | 166 kts | 232° |
| 2026-05-07 10:55 | 57.89818 | -52.60797 | 11690 ft | 166 kts | 232° |
| 2026-05-07 10:56 | 57.89138 | -52.62554 | 11687 ft | 166 kts | 232° |
| 2026-05-07 10:56 | 57.88456 | -52.64312 | 11687 ft | 166 kts | 232° |
| 2026-05-07 10:56 | 57.87777 | -52.66066 | 11687 ft | 166 kts | 232° |
| 2026-05-07 10:56 | 57.87096 | -52.67824 | 11686 ft | 166 kts | 232° |
| 2026-05-07 10:57 | 57.86416 | -52.69577 | 11687 ft | 166 kts | 232° |
| 2026-05-07 10:57 | 57.85743 | -52.71307 | 11686 ft | 166 kts | 232° |
| 2026-05-07 10:57 | 57.85053 | -52.73081 | 11688 ft | 166 kts | 232° |
| 2026-05-07 10:57 | 57.84383 | -52.74802 | 11688 ft | 166 kts | 232° |
| 2026-05-07 10:58 | 57.83695 | -52.76573 | 11688 ft | 165 kts | 232° |
| 2026-05-07 10:58 | 57.83017 | -52.78312 | 11687 ft | 165 kts | 232° |
| 2026-05-07 10:58 | 57.82338 | -52.80052 | 11687 ft | 165 kts | 232° |
| 2026-05-07 10:58 | 57.81668 | -52.81769 | 11684 ft | 165 kts | 232° |
| 2026-05-07 10:59 | 57.80989 | -52.83508 | 11684 ft | 165 kts | 232° |
| 2026-05-07 10:59 | 57.80310 | -52.85246 | 11683 ft | 165 kts | 232° |
| 2026-05-07 10:59 | 57.79630 | -52.86986 | 11684 ft | 165 kts | 232° |
| 2026-05-07 10:59 | 57.78951 | -52.88720 | 11683 ft | 165 kts | 232° |
| 2026-05-07 11:00 | 57.78271 | -52.90456 | 11686 ft | 165 kts | 232° |
| 2026-05-07 11:00 | 57.77593 | -52.92187 | 11685 ft | 165 kts | 232° |
| 2026-05-07 11:00 | 57.76911 | -52.93926 | 11698 ft | 167 kts | 231° |
| 2026-05-07 11:00 | 57.76223 | -52.95677 | 11699 ft | 167 kts | 232° |
| 2026-05-07 11:01 | 57.75536 | -52.97429 | 11699 ft | 167 kts | 232° |
| 2026-05-07 11:01 | 57.74845 | -52.99186 | 11699 ft | 167 kts | 232° |
| 2026-05-07 11:01 | 57.74156 | -53.00939 | 11697 ft | 167 kts | 232° |
| 2026-05-07 11:01 | 57.73466 | -53.02693 | 11696 ft | 167 kts | 231° |
| 2026-05-07 11:02 | 57.72774 | -53.04447 | 11695 ft | 168 kts | 232° |
| 2026-05-07 11:02 | 57.72081 | -53.06202 | 11695 ft | 168 kts | 231° |
| 2026-05-07 11:02 | 57.71390 | -53.07958 | 11695 ft | 168 kts | 232° |
| 2026-05-07 11:02 | 57.70697 | -53.09713 | 11695 ft | 168 kts | 232° |
| 2026-05-07 11:03 | 57.70005 | -53.11465 | 11697 ft | 168 kts | 232° |
| 2026-05-07 11:03 | 57.69311 | -53.13222 | 11696 ft | 168 kts | 231° |
| 2026-05-07 11:03 | 57.68619 | -53.14971 | 11696 ft | 168 kts | 231° |
| 2026-05-07 11:03 | 57.67924 | -53.16725 | 11696 ft | 168 kts | 232° |
| 2026-05-07 11:04 | 57.67231 | -53.18475 | 11694 ft | 168 kts | 231° |
| 2026-05-07 11:04 | 57.66538 | -53.20223 | 11694 ft | 168 kts | 232° |
| 2026-05-07 11:04 | 57.65840 | -53.21973 | 11685 ft | 168 kts | 231° |
| 2026-05-07 11:04 | 57.65143 | -53.23723 | 11678 ft | 168 kts | 232° |
| 2026-05-07 11:05 | 57.64448 | -53.25472 | 11682 ft | 168 kts | 231° |
| 2026-05-07 11:05 | 57.63755 | -53.27216 | 11679 ft | 167 kts | 231° |
| 2026-05-07 11:05 | 57.63061 | -53.28965 | 11685 ft | 167 kts | 232° |
| 2026-05-07 11:05 | 57.62367 | -53.30706 | 11680 ft | 167 kts | 231° |
| 2026-05-07 11:06 | 57.61672 | -53.32449 | 11682 ft | 167 kts | 231° |
| 2026-05-07 11:06 | 57.60980 | -53.34189 | 11682 ft | 167 kts | 231° |
| 2026-05-07 11:06 | 57.60286 | -53.35926 | 11682 ft | 167 kts | 231° |
| 2026-05-07 11:06 | 57.59592 | -53.37663 | 11673 ft | 167 kts | 231° |
| 2026-05-07 11:07 | 57.58898 | -53.39402 | 11675 ft | 167 kts | 231° |
| 2026-05-07 11:07 | 57.58202 | -53.41141 | 11674 ft | 167 kts | 231° |
| 2026-05-07 11:07 | 57.57516 | -53.42854 | 11674 ft | 167 kts | 231° |
| 2026-05-07 11:07 | 57.56822 | -53.44588 | 11674 ft | 167 kts | 231° |
| 2026-05-07 11:08 | 57.56126 | -53.46323 | 11677 ft | 167 kts | 231° |
| 2026-05-07 11:08 | 57.55431 | -53.48057 | 11675 ft | 167 kts | 231° |
| 2026-05-07 11:08 | 57.54735 | -53.49790 | 11674 ft | 167 kts | 231° |
| 2026-05-07 11:08 | 57.54037 | -53.51528 | 11674 ft | 167 kts | 231° |
| 2026-05-07 11:09 | 57.53341 | -53.53256 | 11676 ft | 167 kts | 231° |
| 2026-05-07 11:09 | 57.52645 | -53.54990 | 11676 ft | 167 kts | 231° |
| 2026-05-07 11:09 | 57.51948 | -53.56720 | 11670 ft | 167 kts | 231° |
| 2026-05-07 11:09 | 57.51251 | -53.58449 | 11670 ft | 167 kts | 231° |
| 2026-05-07 11:10 | 57.50554 | -53.60178 | 11670 ft | 167 kts | 231° |
| 2026-05-07 11:10 | 57.49856 | -53.61909 | 11669 ft | 167 kts | 231° |
| 2026-05-07 11:10 | 57.49157 | -53.63639 | 11669 ft | 167 kts | 231° |
| 2026-05-07 11:10 | 57.48460 | -53.65365 | 11671 ft | 167 kts | 231° |
| 2026-05-07 11:11 | 57.47763 | -53.67091 | 11674 ft | 167 kts | 231° |
| 2026-05-07 11:11 | 57.47063 | -53.68817 | 11673 ft | 167 kts | 231° |
| 2026-05-07 11:11 | 57.46602 | -53.69958 | 11673 ft | 167 kts | 231° |
| 2026-05-07 11:11 | 57.45670 | -53.72256 | 11673 ft | 167 kts | 231° |
| 2026-05-07 11:12 | 57.44971 | -53.73981 | 11670 ft | 167 kts | 231° |
| 2026-05-07 11:12 | 57.44273 | -53.75701 | 11670 ft | 167 kts | 231° |
| 2026-05-07 11:12 | 57.43575 | -53.77420 | 11670 ft | 167 kts | 231° |
| 2026-05-07 11:12 | 57.42877 | -53.79140 | 11670 ft | 167 kts | 231° |
| 2026-05-07 11:13 | 57.42178 | -53.80857 | 11669 ft | 167 kts | 231° |
| 2026-05-07 11:13 | 57.41478 | -53.82576 | 11669 ft | 167 kts | 231° |
| 2026-05-07 11:13 | 57.40780 | -53.84290 | 11666 ft | 167 kts | 231° |
| 2026-05-07 11:13 | 57.40079 | -53.86008 | 11667 ft | 167 kts | 231° |
| 2026-05-07 11:14 | 57.39380 | -53.87725 | 11669 ft | 167 kts | 231° |
| 2026-05-07 11:14 | 57.38680 | -53.89438 | 11669 ft | 167 kts | 231° |
| 2026-05-07 11:14 | 57.37982 | -53.91149 | 11669 ft | 167 kts | 231° |
| 2026-05-07 11:14 | 57.37280 | -53.92866 | 11668 ft | 167 kts | 231° |
| 2026-05-07 11:15 | 57.36582 | -53.94573 | 11665 ft | 167 kts | 231° |
| 2026-05-07 11:15 | 57.35881 | -53.96285 | 11665 ft | 167 kts | 231° |
| 2026-05-07 11:15 | 57.35417 | -53.97418 | 11665 ft | 167 kts | 231° |
| 2026-05-07 11:15 | 57.34717 | -53.99127 | 11665 ft | 167 kts | 231° |
| 2026-05-07 11:16 | 57.34015 | -54.00840 | 11667 ft | 167 kts | 231° |
| 2026-05-07 11:16 | 57.33314 | -54.02546 | 11668 ft | 167 kts | 231° |
| 2026-05-07 11:16 | 57.32611 | -54.04257 | 11668 ft | 167 kts | 231° |
| 2026-05-07 11:16 | 57.31911 | -54.05962 | 11668 ft | 167 kts | 231° |
| 2026-05-07 11:17 | 57.31208 | -54.07671 | 11670 ft | 167 kts | 231° |
| 2026-05-07 11:17 | 57.30505 | -54.09378 | 11669 ft | 167 kts | 231° |
| 2026-05-07 11:17 | 57.29804 | -54.11082 | 11666 ft | 166 kts | 231° |
| 2026-05-07 11:17 | 57.29102 | -54.12783 | 11666 ft | 166 kts | 231° |
| 2026-05-07 11:18 | 57.28405 | -54.14476 | 11667 ft | 166 kts | 231° |
| 2026-05-07 11:18 | 57.27706 | -54.16167 | 11666 ft | 165 kts | 231° |
| 2026-05-07 11:18 | 57.27008 | -54.17858 | 11666 ft | 165 kts | 231° |
| 2026-05-07 11:18 | 57.26310 | -54.19548 | 11665 ft | 165 kts | 231° |
| 2026-05-07 11:19 | 57.25610 | -54.21240 | 11666 ft | 165 kts | 231° |
| 2026-05-07 11:19 | 57.24911 | -54.22930 | 11666 ft | 165 kts | 231° |
| 2026-05-07 11:19 | 57.24213 | -54.24613 | 11666 ft | 166 kts | 231° |
| 2026-05-07 11:19 | 57.23512 | -54.26302 | 11665 ft | 166 kts | 231° |
| 2026-05-07 11:20 | 57.22822 | -54.27971 | 11662 ft | 166 kts | 231° |
| 2026-05-07 11:20 | 57.22121 | -54.29656 | 11656 ft | 166 kts | 231° |
| 2026-05-07 11:20 | 57.21420 | -54.31345 | 11656 ft | 166 kts | 231° |
| 2026-05-07 11:20 | 57.20720 | -54.33028 | 11656 ft | 166 kts | 231° |
| 2026-05-07 11:21 | 57.20018 | -54.34714 | 11660 ft | 166 kts | 231° |
| 2026-05-07 11:21 | 57.19317 | -54.36398 | 11660 ft | 165 kts | 231° |
| 2026-05-07 11:21 | 57.18616 | -54.38082 | 11660 ft | 165 kts | 231° |
| 2026-05-07 11:21 | 57.17917 | -54.39760 | 11659 ft | 165 kts | 231° |
| 2026-05-07 11:22 | 57.17216 | -54.41442 | 11657 ft | 165 kts | 231° |
| 2026-05-07 11:22 | 57.16514 | -54.43123 | 11658 ft | 165 kts | 231° |
| 2026-05-07 11:22 | 57.15812 | -54.44803 | 11658 ft | 165 kts | 231° |
| 2026-05-07 11:22 | 57.15111 | -54.46480 | 11658 ft | 165 kts | 231° |
| 2026-05-07 11:23 | 57.14408 | -54.48160 | 11655 ft | 165 kts | 231° |
| 2026-05-07 11:23 | 57.13705 | -54.49840 | 11655 ft | 165 kts | 231° |
| 2026-05-07 11:23 | 57.13004 | -54.51511 | 11655 ft | 165 kts | 231° |
| 2026-05-07 11:23 | 57.12301 | -54.53193 | 11655 ft | 165 kts | 231° |
| 2026-05-07 11:24 | 57.11597 | -54.54867 | 11658 ft | 165 kts | 231° |
| 2026-05-07 11:24 | 57.10896 | -54.56539 | 11659 ft | 165 kts | 231° |
| 2026-05-07 11:24 | 57.10196 | -54.58207 | 11658 ft | 164 kts | 231° |
| 2026-05-07 11:24 | 57.09505 | -54.59848 | 11658 ft | 164 kts | 231° |
| 2026-05-07 11:25 | 57.08797 | -54.61531 | 11661 ft | 164 kts | 231° |
| 2026-05-07 11:25 | 57.08107 | -54.63171 | 11660 ft | 164 kts | 231° |
| 2026-05-07 11:25 | 57.07399 | -54.64852 | 11654 ft | 164 kts | 231° |
| 2026-05-07 11:25 | 57.06710 | -54.66487 | 11654 ft | 164 kts | 231° |
| 2026-05-07 11:26 | 57.06011 | -54.68145 | 11652 ft | 164 kts | 231° |
| 2026-05-07 11:26 | 57.05311 | -54.69800 | 11652 ft | 164 kts | 231° |
| 2026-05-07 11:26 | 57.04613 | -54.71454 | 11652 ft | 164 kts | 231° |
| 2026-05-07 11:26 | 57.03914 | -54.73111 | 11651 ft | 164 kts | 231° |
| 2026-05-07 11:27 | 57.03213 | -54.74764 | 11650 ft | 164 kts | 231° |
| 2026-05-07 11:27 | 57.02513 | -54.76418 | 11650 ft | 164 kts | 231° |
| 2026-05-07 11:27 | 57.01816 | -54.78066 | 11649 ft | 164 kts | 231° |
| 2026-05-07 11:27 | 57.01117 | -54.79715 | 11649 ft | 164 kts | 231° |
| 2026-05-07 11:28 | 57.00418 | -54.81364 | 11650 ft | 164 kts | 231° |
| 2026-05-07 11:28 | 56.99720 | -54.83009 | 11645 ft | 164 kts | 231° |
| 2026-05-07 11:28 | 56.99020 | -54.84659 | 11645 ft | 164 kts | 231° |
| 2026-05-07 11:28 | 56.98319 | -54.86304 | 11646 ft | 163 kts | 231° |
| 2026-05-07 11:29 | 56.97621 | -54.87948 | 11650 ft | 163 kts | 231° |
| 2026-05-07 11:29 | 56.96921 | -54.89593 | 11651 ft | 163 kts | 231° |
| 2026-05-07 11:29 | 56.96222 | -54.91234 | 11649 ft | 164 kts | 231° |
| 2026-05-07 11:29 | 56.95521 | -54.92874 | 11649 ft | 164 kts | 231° |
| 2026-05-07 11:30 | 56.94820 | -54.94522 | 11647 ft | 164 kts | 231° |
| 2026-05-07 11:30 | 56.94120 | -54.96161 | 11649 ft | 163 kts | 231° |
| 2026-05-07 11:30 | 56.93419 | -54.97803 | 11649 ft | 163 kts | 231° |
| 2026-05-07 11:30 | 56.92717 | -54.99443 | 11650 ft | 163 kts | 231° |
| 2026-05-07 11:31 | 56.92028 | -55.01058 | 11642 ft | 163 kts | 231° |
| 2026-05-07 11:31 | 56.91332 | -55.02682 | 11642 ft | 162 kts | 231° |
| 2026-05-07 11:31 | 56.90638 | -55.04308 | 11642 ft | 162 kts | 231° |
| 2026-05-07 11:31 | 56.89944 | -55.05923 | 11643 ft | 161 kts | 231° |
| 2026-05-07 11:32 | 56.88551 | -55.09172 | 11655 ft | 163 kts | 231° |
| 2026-05-07 11:32 | 56.87852 | -55.10799 | 11655 ft | 163 kts | 231° |
| 2026-05-07 11:32 | 56.87155 | -55.12425 | 11655 ft | 162 kts | 231° |
| 2026-05-07 11:33 | 56.86457 | -55.14048 | 11657 ft | 162 kts | 231° |
| 2026-05-07 11:33 | 56.85756 | -55.15673 | 11657 ft | 163 kts | 231° |
| 2026-05-07 11:33 | 56.85059 | -55.17297 | 11657 ft | 163 kts | 231° |
| 2026-05-07 11:33 | 56.84359 | -55.18921 | 11657 ft | 163 kts | 230° |
| 2026-05-07 11:34 | 56.83659 | -55.20544 | 11654 ft | 162 kts | 231° |
| 2026-05-07 11:34 | 56.82961 | -55.22161 | 11654 ft | 162 kts | 231° |
| 2026-05-07 11:34 | 56.82261 | -55.23784 | 11653 ft | 162 kts | 231° |
| 2026-05-07 11:34 | 56.81561 | -55.25404 | 11653 ft | 162 kts | 231° |
| 2026-05-07 11:35 | 56.80862 | -55.27021 | 11655 ft | 162 kts | 231° |
| 2026-05-07 11:35 | 56.80161 | -55.28642 | 11655 ft | 162 kts | 231° |
| 2026-05-07 11:35 | 56.79459 | -55.30262 | 11655 ft | 162 kts | 231° |
| 2026-05-07 11:35 | 56.78760 | -55.31879 | 11654 ft | 162 kts | 231° |
| 2026-05-07 11:36 | 56.78060 | -55.33492 | 11650 ft | 163 kts | 230° |
| 2026-05-07 11:36 | 56.77357 | -55.35112 | 11650 ft | 163 kts | 230° |
| 2026-05-07 11:36 | 56.76657 | -55.36727 | 11649 ft | 163 kts | 230° |
| 2026-05-07 11:36 | 56.75954 | -55.38344 | 11649 ft | 163 kts | 230° |
| 2026-05-07 11:37 | 56.75253 | -55.39958 | 11646 ft | 163 kts | 231° |
| 2026-05-07 11:37 | 56.74558 | -55.41556 | 11646 ft | 162 kts | 230° |
| 2026-05-07 11:37 | 56.73856 | -55.43170 | 11646 ft | 163 kts | 230° |
| 2026-05-07 11:37 | 56.73154 | -55.44780 | 11646 ft | 163 kts | 230° |
| 2026-05-07 11:38 | 56.72451 | -55.46395 | 11646 ft | 163 kts | 230° |
| 2026-05-07 11:38 | 56.71747 | -55.48009 | 11646 ft | 163 kts | 230° |
| 2026-05-07 11:38 | 56.71045 | -55.49620 | 11647 ft | 163 kts | 230° |
| 2026-05-07 11:38 | 56.70340 | -55.51232 | 11635 ft | 163 kts | 230° |
| 2026-05-07 11:39 | 56.69637 | -55.52843 | 11635 ft | 163 kts | 230° |
| 2026-05-07 11:39 | 56.68933 | -55.54454 | 11636 ft | 163 kts | 230° |
| 2026-05-07 11:39 | 56.68229 | -55.56062 | 11635 ft | 163 kts | 230° |
| 2026-05-07 11:39 | 56.67524 | -55.57673 | 11634 ft | 163 kts | 230° |
| 2026-05-07 11:40 | 56.66819 | -55.59282 | 11632 ft | 163 kts | 230° |
| 2026-05-07 11:40 | 56.66114 | -55.60891 | 11631 ft | 163 kts | 230° |
| 2026-05-07 11:40 | 56.65406 | -55.62503 | 11632 ft | 163 kts | 230° |
| 2026-05-07 11:40 | 56.64702 | -55.64108 | 11631 ft | 163 kts | 230° |
| 2026-05-07 11:41 | 56.63996 | -55.65716 | 11633 ft | 163 kts | 230° |
| 2026-05-07 11:41 | 56.63291 | -55.67318 | 11635 ft | 163 kts | 230° |
| 2026-05-07 11:41 | 56.62585 | -55.68923 | 11632 ft | 162 kts | 230° |
| 2026-05-07 11:41 | 56.61881 | -55.70525 | 11632 ft | 162 kts | 230° |
| 2026-05-07 11:42 | 56.61175 | -55.72126 | 11629 ft | 162 kts | 230° |
| 2026-05-07 11:42 | 56.60471 | -55.73725 | 11628 ft | 162 kts | 230° |
| 2026-05-07 11:42 | 56.59765 | -55.75324 | 11628 ft | 162 kts | 230° |
| 2026-05-07 11:42 | 56.59058 | -55.76929 | 11626 ft | 162 kts | 230° |
| 2026-05-07 11:43 | 56.58352 | -55.78527 | 11628 ft | 162 kts | 230° |
| 2026-05-07 11:43 | 56.57647 | -55.80125 | 11629 ft | 162 kts | 230° |
| 2026-05-07 11:43 | 56.56940 | -55.81723 | 11630 ft | 162 kts | 230° |
| 2026-05-07 11:43 | 56.56232 | -55.83324 | 11631 ft | 162 kts | 230° |
| 2026-05-07 11:44 | 56.55524 | -55.84923 | 11626 ft | 162 kts | 230° |
| 2026-05-07 11:44 | 56.54817 | -55.86519 | 11629 ft | 162 kts | 230° |
| 2026-05-07 11:44 | 56.54111 | -55.88110 | 11630 ft | 162 kts | 230° |
| 2026-05-07 11:44 | 56.53418 | -55.89672 | 11627 ft | 161 kts | 230° |
| 2026-05-07 11:45 | 56.52715 | -55.91256 | 11623 ft | 162 kts | 230° |
| 2026-05-07 11:45 | 56.52009 | -55.92844 | 11623 ft | 162 kts | 230° |
| 2026-05-07 11:45 | 56.51305 | -55.94429 | 11622 ft | 162 kts | 230° |
| 2026-05-07 11:45 | 56.50601 | -55.96013 | 11624 ft | 162 kts | 230° |
| 2026-05-07 11:46 | 56.49896 | -55.97597 | 11623 ft | 161 kts | 230° |
| 2026-05-07 11:46 | 56.49192 | -55.99178 | 11623 ft | 161 kts | 230° |
| 2026-05-07 11:46 | 56.48487 | -56.00760 | 11622 ft | 161 kts | 230° |
| 2026-05-07 11:46 | 56.47781 | -56.02343 | 11614 ft | 161 kts | 230° |
| 2026-05-07 11:47 | 56.47075 | -56.03925 | 11617 ft | 161 kts | 230° |
| 2026-05-07 11:47 | 56.46372 | -56.05501 | 11619 ft | 161 kts | 230° |
| 2026-05-07 11:47 | 56.45665 | -56.07080 | 11618 ft | 162 kts | 230° |
| 2026-05-07 11:47 | 56.44958 | -56.08665 | 11618 ft | 162 kts | 230° |
| 2026-05-07 11:48 | 56.44251 | -56.10242 | 11612 ft | 162 kts | 230° |
| 2026-05-07 11:48 | 56.43544 | -56.11822 | 11613 ft | 162 kts | 230° |
| 2026-05-07 11:48 | 56.42836 | -56.13402 | 11613 ft | 161 kts | 230° |
| 2026-05-07 11:48 | 56.42131 | -56.14976 | 11611 ft | 161 kts | 230° |
| 2026-05-07 11:49 | 56.41432 | -56.16535 | 11614 ft | 161 kts | 230° |
| 2026-05-07 11:49 | 56.40726 | -56.18108 | 11613 ft | 161 kts | 230° |
| 2026-05-07 11:49 | 56.40018 | -56.19685 | 11613 ft | 162 kts | 230° |
| 2026-05-07 11:49 | 56.39310 | -56.21258 | 11612 ft | 161 kts | 230° |
| 2026-05-07 11:50 | 56.38601 | -56.22835 | 11609 ft | 162 kts | 230° |
| 2026-05-07 11:50 | 56.37892 | -56.24411 | 11608 ft | 162 kts | 230° |
| 2026-05-07 11:50 | 56.37182 | -56.25988 | 11610 ft | 162 kts | 230° |
| 2026-05-07 11:50 | 56.36474 | -56.27561 | 11610 ft | 162 kts | 230° |
| 2026-05-07 11:51 | 56.35764 | -56.29133 | 11609 ft | 161 kts | 229° |
| 2026-05-07 11:51 | 56.35055 | -56.30704 | 11610 ft | 161 kts | 229° |
| 2026-05-07 11:51 | 56.34348 | -56.32271 | 11610 ft | 161 kts | 229° |
| 2026-05-07 11:51 | 56.33638 | -56.33840 | 11610 ft | 161 kts | 229° |
| 2026-05-07 11:52 | 56.32933 | -56.35400 | 11614 ft | 161 kts | 229° |
| 2026-05-07 11:52 | 56.32226 | -56.36963 | 11605 ft | 161 kts | 229° |
| 2026-05-07 11:52 | 56.31517 | -56.38529 | 11607 ft | 161 kts | 229° |
| 2026-05-07 11:52 | 56.30810 | -56.40089 | 11605 ft | 161 kts | 229° |
| 2026-05-07 11:53 | 56.30102 | -56.41650 | 11609 ft | 161 kts | 229° |
| 2026-05-07 11:53 | 56.29391 | -56.43218 | 11607 ft | 161 kts | 229° |
| 2026-05-07 11:53 | 56.28683 | -56.44777 | 11607 ft | 161 kts | 229° |
| 2026-05-07 11:53 | 56.27981 | -56.46324 | 11606 ft | 161 kts | 229° |
| 2026-05-07 11:54 | 56.27265 | -56.47898 | 11606 ft | 161 kts | 229° |
| 2026-05-07 11:54 | 56.26555 | -56.49458 | 11605 ft | 161 kts | 229° |
| 2026-05-07 11:54 | 56.25846 | -56.51018 | 11605 ft | 161 kts | 229° |
| 2026-05-07 11:54 | 56.25136 | -56.52576 | 11605 ft | 161 kts | 229° |
| 2026-05-07 11:55 | 56.24424 | -56.54139 | 11598 ft | 161 kts | 229° |
| 2026-05-07 11:55 | 56.23715 | -56.55693 | 11599 ft | 161 kts | 229° |
| 2026-05-07 11:55 | 56.23006 | -56.57248 | 11599 ft | 161 kts | 229° |
| 2026-05-07 11:55 | 56.22294 | -56.58807 | 11598 ft | 161 kts | 229° |
| 2026-05-07 11:56 | 56.21584 | -56.60361 | 11598 ft | 161 kts | 229° |
| 2026-05-07 11:56 | 56.20873 | -56.61916 | 11598 ft | 161 kts | 229° |
| 2026-05-07 11:56 | 56.20162 | -56.63471 | 11599 ft | 161 kts | 229° |
| 2026-05-07 11:56 | 56.19461 | -56.65001 | 11599 ft | 161 kts | 229° |
| 2026-05-07 11:57 | 56.18750 | -56.66553 | 11600 ft | 161 kts | 229° |
| 2026-05-07 11:57 | 56.18037 | -56.68110 | 11594 ft | 161 kts | 229° |
| 2026-05-07 11:57 | 56.17327 | -56.69659 | 11593 ft | 161 kts | 229° |
| 2026-05-07 11:57 | 56.16614 | -56.71211 | 11594 ft | 161 kts | 229° |
| 2026-05-07 11:58 | 56.15902 | -56.72762 | 11593 ft | 161 kts | 229° |
| 2026-05-07 11:58 | 56.15188 | -56.74315 | 11593 ft | 161 kts | 229° |
| 2026-05-07 11:58 | 56.14475 | -56.75867 | 11592 ft | 161 kts | 229° |
| 2026-05-07 11:58 | 56.13761 | -56.77417 | 11593 ft | 161 kts | 229° |
| 2026-05-07 11:59 | 56.13047 | -56.78968 | 11593 ft | 161 kts | 229° |
| 2026-05-07 11:59 | 56.12334 | -56.80517 | 11592 ft | 161 kts | 229° |
| 2026-05-07 11:59 | 56.11621 | -56.82064 | 11592 ft | 161 kts | 228° |
| 2026-05-07 11:59 | 56.10909 | -56.83607 | 11592 ft | 161 kts | 228° |
| 2026-05-07 12:00 | 56.10195 | -56.85155 | 11592 ft | 161 kts | 229° |
| 2026-05-07 12:00 | 56.09482 | -56.86699 | 11588 ft | 161 kts | 228° |
| 2026-05-07 12:00 | 56.08766 | -56.88246 | 11587 ft | 161 kts | 228° |
| 2026-05-07 12:00 | 56.08053 | -56.89787 | 11588 ft | 161 kts | 228° |
| 2026-05-07 12:01 | 56.07339 | -56.91333 | 11587 ft | 161 kts | 228° |
| 2026-05-07 12:01 | 56.06624 | -56.92874 | 11587 ft | 161 kts | 228° |
| 2026-05-07 12:01 | 56.05908 | -56.94420 | 11588 ft | 161 kts | 228° |
| 2026-05-07 12:01 | 56.05194 | -56.95960 | 11587 ft | 161 kts | 228° |
| 2026-05-07 12:02 | 56.04478 | -56.97505 | 11586 ft | 161 kts | 228° |
| 2026-05-07 12:02 | 56.03764 | -56.99042 | 11586 ft | 161 kts | 228° |
| 2026-05-07 12:02 | 56.02967 | -57.00450 | 11589 ft | 161 kts | 218° |
| 2026-05-07 12:02 | 56.02053 | -57.01601 | 11587 ft | 161 kts | 216° |
| 2026-05-07 12:03 | 56.01145 | -57.02775 | 11585 ft | 161 kts | 216° |
| 2026-05-07 12:03 | 56.00236 | -57.03942 | 11585 ft | 161 kts | 216° |
| 2026-05-07 12:03 | 55.99324 | -57.05108 | 11584 ft | 161 kts | 216° |
| 2026-05-07 12:03 | 55.98414 | -57.06273 | 11585 ft | 161 kts | 216° |
| 2026-05-07 12:04 | 55.97500 | -57.07439 | 11592 ft | 161 kts | 216° |
| 2026-05-07 12:04 | 55.96595 | -57.08594 | 11589 ft | 162 kts | 216° |
| 2026-05-07 12:04 | 55.95668 | -57.09779 | 11589 ft | 162 kts | 216° |
| 2026-05-07 12:04 | 55.94747 | -57.10952 | 11590 ft | 163 kts | 216° |
| 2026-05-07 12:05 | 55.93827 | -57.12126 | 11588 ft | 163 kts | 216° |
| 2026-05-07 12:05 | 55.93214 | -57.12906 | 11588 ft | 163 kts | 216° |
| 2026-05-07 12:05 | 55.91994 | -57.14458 | 11585 ft | 163 kts | 216° |
| 2026-05-07 12:05 | 55.91070 | -57.15635 | 11583 ft | 163 kts | 216° |
| 2026-05-07 12:06 | 55.90145 | -57.16810 | 11583 ft | 163 kts | 216° |
| 2026-05-07 12:06 | 55.89535 | -57.17586 | 11586 ft | 163 kts | 216° |
| 2026-05-07 12:06 | 55.88610 | -57.18763 | 11586 ft | 163 kts | 216° |
| 2026-05-07 12:06 | 55.87375 | -57.20328 | 11585 ft | 163 kts | 216° |
| 2026-05-07 12:07 | 55.86751 | -57.21121 | 11584 ft | 163 kts | 216° |
| 2026-05-07 12:07 | 55.85527 | -57.22671 | 11583 ft | 163 kts | 216° |
| 2026-05-07 12:07 | 55.84915 | -57.23448 | 11585 ft | 163 kts | 215° |
| 2026-05-07 12:07 | 55.83992 | -57.24616 | 11577 ft | 163 kts | 216° |
| 2026-05-07 12:08 | 55.83066 | -57.25788 | 11579 ft | 163 kts | 215° |
| 2026-05-07 12:08 | 55.82141 | -57.26957 | 11578 ft | 163 kts | 216° |
| 2026-05-07 12:08 | 55.81218 | -57.28127 | 11578 ft | 163 kts | 215° |
| 2026-05-07 12:08 | 55.80292 | -57.29296 | 11579 ft | 163 kts | 216° |
| 2026-05-07 12:09 | 55.79368 | -57.30463 | 11575 ft | 163 kts | 215° |
| 2026-05-07 12:09 | 55.78440 | -57.31634 | 11575 ft | 163 kts | 216° |
| 2026-05-07 12:09 | 55.77516 | -57.32800 | 11575 ft | 163 kts | 215° |
| 2026-05-07 12:09 | 55.76591 | -57.33966 | 11574 ft | 163 kts | 215° |
| 2026-05-07 12:10 | 55.75666 | -57.35131 | 11573 ft | 163 kts | 215° |
| 2026-05-07 12:10 | 55.74741 | -57.36297 | 11569 ft | 163 kts | 215° |
| 2026-05-07 12:10 | 55.73814 | -57.37462 | 11569 ft | 163 kts | 215° |
| 2026-05-07 12:10 | 55.72886 | -57.38627 | 11569 ft | 164 kts | 215° |
| 2026-05-07 12:11 | 55.71957 | -57.39798 | 11571 ft | 164 kts | 215° |
| 2026-05-07 12:11 | 55.71027 | -57.40966 | 11571 ft | 164 kts | 215° |
| 2026-05-07 12:11 | 55.70095 | -57.42136 | 11570 ft | 164 kts | 215° |
| 2026-05-07 12:11 | 55.69166 | -57.43298 | 11570 ft | 164 kts | 215° |
| 2026-05-07 12:12 | 55.68235 | -57.44469 | 11569 ft | 164 kts | 215° |
| 2026-05-07 12:12 | 55.67304 | -57.45634 | 11570 ft | 164 kts | 215° |
| 2026-05-07 12:12 | 55.66372 | -57.46801 | 11570 ft | 164 kts | 215° |
| 2026-05-07 12:12 | 55.65439 | -57.47970 | 11566 ft | 164 kts | 215° |
| 2026-05-07 12:13 | 55.64505 | -57.49140 | 11565 ft | 164 kts | 215° |
| 2026-05-07 12:13 | 55.63572 | -57.50306 | 11565 ft | 164 kts | 215° |
| 2026-05-07 12:13 | 55.62638 | -57.51470 | 11565 ft | 164 kts | 215° |
| 2026-05-07 12:13 | 55.61706 | -57.52633 | 11563 ft | 164 kts | 215° |
| 2026-05-07 12:14 | 55.60774 | -57.53797 | 11563 ft | 164 kts | 215° |
| 2026-05-07 12:14 | 55.59844 | -57.54959 | 11564 ft | 163 kts | 215° |
| 2026-05-07 12:14 | 55.58928 | -57.56099 | 11563 ft | 163 kts | 215° |
| 2026-05-07 12:14 | 55.57993 | -57.57264 | 11563 ft | 162 kts | 215° |
| 2026-05-07 12:15 | 55.57082 | -57.58400 | 11566 ft | 162 kts | 215° |
| 2026-05-07 12:15 | 55.56147 | -57.59561 | 11554 ft | 162 kts | 215° |
| 2026-05-07 12:15 | 55.55239 | -57.60690 | 11554 ft | 161 kts | 215° |
| 2026-05-07 12:15 | 55.54324 | -57.61828 | 11555 ft | 161 kts | 215° |
| 2026-05-07 12:16 | 55.53396 | -57.62979 | 11555 ft | 161 kts | 214° |
| 2026-05-07 12:16 | 55.52491 | -57.64103 | 11559 ft | 161 kts | 214° |
| 2026-05-07 12:16 | 55.51576 | -57.65237 | 11557 ft | 161 kts | 214° |
| 2026-05-07 12:16 | 55.50661 | -57.66373 | 11560 ft | 161 kts | 214° |
| 2026-05-07 12:17 | 55.49739 | -57.67514 | 11560 ft | 162 kts | 214° |
| 2026-05-07 12:17 | 55.48821 | -57.68653 | 11560 ft | 162 kts | 214° |
| 2026-05-07 12:17 | 55.47899 | -57.69793 | 11553 ft | 162 kts | 214° |
| 2026-05-07 12:17 | 55.46976 | -57.70934 | 11553 ft | 162 kts | 214° |
| 2026-05-07 12:18 | 55.46055 | -57.72074 | 11553 ft | 161 kts | 214° |
| 2026-05-07 12:18 | 55.45138 | -57.73206 | 11552 ft | 161 kts | 214° |
| 2026-05-07 12:18 | 55.44221 | -57.74339 | 11551 ft | 161 kts | 214° |
| 2026-05-07 12:18 | 55.43305 | -57.75470 | 11549 ft | 161 kts | 214° |
| 2026-05-07 12:19 | 55.42392 | -57.76596 | 11550 ft | 160 kts | 214° |
| 2026-05-07 12:19 | 55.41481 | -57.77719 | 11548 ft | 160 kts | 214° |
| 2026-05-07 12:19 | 55.40575 | -57.78836 | 11549 ft | 159 kts | 214° |
| 2026-05-07 12:19 | 55.39666 | -57.79954 | 11550 ft | 159 kts | 214° |
| 2026-05-07 12:20 | 55.38765 | -57.81064 | 11543 ft | 158 kts | 214° |
| 2026-05-07 12:20 | 55.37861 | -57.82172 | 11545 ft | 158 kts | 214° |
| 2026-05-07 12:20 | 55.36963 | -57.83282 | 11549 ft | 158 kts | 214° |
| 2026-05-07 12:20 | 55.36061 | -57.84390 | 11549 ft | 158 kts | 214° |
| 2026-05-07 12:21 | 55.35158 | -57.85497 | 11554 ft | 158 kts | 214° |
| 2026-05-07 12:21 | 55.34256 | -57.86604 | 11554 ft | 158 kts | 214° |
| 2026-05-07 12:21 | 55.33356 | -57.87706 | 11554 ft | 158 kts | 214° |
| 2026-05-07 12:21 | 55.32452 | -57.88813 | 11554 ft | 158 kts | 214° |
| 2026-05-07 12:22 | 55.31549 | -57.89920 | 11555 ft | 158 kts | 214° |
| 2026-05-07 12:22 | 55.30646 | -57.91026 | 11555 ft | 158 kts | 214° |
| 2026-05-07 12:22 | 55.29744 | -57.92132 | 11551 ft | 158 kts | 214° |
| 2026-05-07 12:22 | 55.28842 | -57.93233 | 11551 ft | 158 kts | 214° |
| 2026-05-07 12:23 | 55.27942 | -57.94333 | 11549 ft | 158 kts | 214° |
| 2026-05-07 12:23 | 55.27038 | -57.95436 | 11549 ft | 158 kts | 214° |
| 2026-05-07 12:23 | 55.26140 | -57.96533 | 11550 ft | 158 kts | 214° |
| 2026-05-07 12:23 | 55.25249 | -57.97620 | 11549 ft | 158 kts | 214° |
| 2026-05-07 12:24 | 55.24339 | -57.98730 | 11547 ft | 157 kts | 214° |
| 2026-05-07 12:24 | 55.23444 | -57.99821 | 11545 ft | 157 kts | 214° |
| 2026-05-07 12:24 | 55.22546 | -58.00914 | 11544 ft | 156 kts | 214° |
| 2026-05-07 12:24 | 55.21657 | -58.01996 | 11542 ft | 156 kts | 214° |
| 2026-05-07 12:25 | 55.20763 | -58.03081 | 11535 ft | 155 kts | 214° |
| 2026-05-07 12:25 | 55.19877 | -58.04159 | 11534 ft | 155 kts | 213° |
| 2026-05-07 12:25 | 55.18988 | -58.05240 | 11534 ft | 155 kts | 214° |
| 2026-05-07 12:25 | 55.18111 | -58.06306 | 11534 ft | 156 kts | 214° |
| 2026-05-07 12:26 | 55.17223 | -58.07384 | 11539 ft | 156 kts | 214° |
| 2026-05-07 12:26 | 55.16335 | -58.08460 | 11539 ft | 156 kts | 214° |
| 2026-05-07 12:26 | 55.15440 | -58.09546 | 11539 ft | 156 kts | 213° |
| 2026-05-07 12:26 | 55.14545 | -58.10631 | 11539 ft | 156 kts | 213° |
| 2026-05-07 12:27 | 55.13650 | -58.11716 | 11536 ft | 157 kts | 213° |
| 2026-05-07 12:27 | 55.12752 | -58.12802 | 11536 ft | 156 kts | 213° |
| 2026-05-07 12:27 | 55.11861 | -58.13880 | 11530 ft | 157 kts | 213° |
| 2026-05-07 12:27 | 55.10963 | -58.14966 | 11530 ft | 157 kts | 213° |
| 2026-05-07 12:28 | 55.10065 | -58.16051 | 11536 ft | 157 kts | 213° |
| 2026-05-07 12:28 | 55.09167 | -58.17135 | 11536 ft | 157 kts | 213° |
| 2026-05-07 12:28 | 55.08270 | -58.18220 | 11534 ft | 156 kts | 213° |
| 2026-05-07 12:28 | 55.07377 | -58.19298 | 11539 ft | 156 kts | 213° |
| 2026-05-07 12:29 | 55.06486 | -58.20372 | 11536 ft | 155 kts | 213° |
| 2026-05-07 12:29 | 55.05600 | -58.21439 | 11534 ft | 154 kts | 213° |
| 2026-05-07 12:29 | 55.04716 | -58.22503 | 11533 ft | 155 kts | 213° |
| 2026-05-07 12:29 | 55.03830 | -58.23570 | 11533 ft | 155 kts | 213° |
| 2026-05-07 12:30 | 55.02946 | -58.24634 | 11533 ft | 154 kts | 213° |
| 2026-05-07 12:30 | 55.02072 | -58.25685 | 11532 ft | 154 kts | 213° |
| 2026-05-07 12:30 | 55.01188 | -58.26748 | 11532 ft | 155 kts | 213° |
| 2026-05-07 12:30 | 55.00302 | -58.27810 | 11534 ft | 155 kts | 213° |
| 2026-05-07 12:31 | 54.99409 | -58.28883 | 11536 ft | 156 kts | 213° |
| 2026-05-07 12:31 | 54.98511 | -58.29962 | 11538 ft | 157 kts | 213° |
| 2026-05-07 12:31 | 54.97612 | -58.31041 | 11541 ft | 157 kts | 213° |
| 2026-05-07 12:31 | 54.96711 | -58.32119 | 11541 ft | 157 kts | 213° |
| 2026-05-07 12:32 | 54.95807 | -58.33203 | 11541 ft | 158 kts | 213° |
| 2026-05-07 12:32 | 54.94905 | -58.34283 | 11541 ft | 158 kts | 213° |
| 2026-05-07 12:32 | 54.94000 | -58.35364 | 11541 ft | 158 kts | 213° |
| 2026-05-07 12:32 | 54.93094 | -58.36448 | 11541 ft | 158 kts | 213° |
| 2026-05-07 12:33 | 54.91273 | -58.38625 | 11542 ft | 159 kts | 213° |
| 2026-05-07 12:33 | 54.90359 | -58.39713 | 11542 ft | 159 kts | 213° |
| 2026-05-07 12:33 | 54.89446 | -58.40806 | 11540 ft | 159 kts | 213° |
| 2026-05-07 12:34 | 54.88534 | -58.41892 | 11542 ft | 159 kts | 213° |
| 2026-05-07 12:34 | 54.87621 | -58.42982 | 11541 ft | 159 kts | 213° |
| 2026-05-07 12:34 | 54.86709 | -58.44067 | 11541 ft | 159 kts | 213° |
| 2026-05-07 12:34 | 54.85797 | -58.45154 | 11542 ft | 159 kts | 213° |
| 2026-05-07 12:35 | 54.84887 | -58.46236 | 11545 ft | 159 kts | 212° |
| 2026-05-07 12:35 | 54.83977 | -58.47320 | 11541 ft | 158 kts | 212° |
| 2026-05-07 12:35 | 54.83075 | -58.48392 | 11541 ft | 157 kts | 212° |
| 2026-05-07 12:35 | 54.82175 | -58.49460 | 11542 ft | 157 kts | 212° |
| 2026-05-07 12:36 | 54.81277 | -58.50526 | 11542 ft | 156 kts | 212° |
| 2026-05-07 12:36 | 54.80380 | -58.51593 | 11542 ft | 156 kts | 212° |
| 2026-05-07 12:36 | 54.79485 | -58.52655 | 11541 ft | 156 kts | 212° |
| 2026-05-07 12:36 | 54.78602 | -58.53698 | 11541 ft | 156 kts | 212° |
| 2026-05-07 12:37 | 54.77697 | -58.54771 | 11538 ft | 155 kts | 212° |
| 2026-05-07 12:37 | 54.76817 | -58.55812 | 11538 ft | 155 kts | 212° |
| 2026-05-07 12:37 | 54.75911 | -58.56884 | 11537 ft | 155 kts | 212° |
| 2026-05-07 12:37 | 54.75022 | -58.57937 | 11537 ft | 155 kts | 212° |
| 2026-05-07 12:38 | 54.74131 | -58.58990 | 11534 ft | 155 kts | 212° |
| 2026-05-07 12:38 | 54.73256 | -58.60008 | 11538 ft | 151 kts | 211° |
| 2026-05-07 12:38 | 54.72380 | -58.61037 | 11539 ft | 154 kts | 213° |
| 2026-05-07 12:38 | 54.71499 | -58.62104 | 11538 ft | 155 kts | 212° |
| 2026-05-07 12:39 | 54.70606 | -58.63168 | 11536 ft | 155 kts | 212° |
| 2026-05-07 12:39 | 54.69710 | -58.64217 | 11541 ft | 156 kts | 212° |
| 2026-05-07 12:39 | 54.68811 | -58.65275 | 11540 ft | 156 kts | 212° |
| 2026-05-07 12:39 | 54.67912 | -58.66332 | 11540 ft | 156 kts | 212° |
| 2026-05-07 12:40 | 54.67013 | -58.67389 | 11536 ft | 156 kts | 212° |
| 2026-05-07 12:40 | 54.66117 | -58.68444 | 11537 ft | 155 kts | 212° |
| 2026-05-07 12:40 | 54.65223 | -58.69494 | 11537 ft | 156 kts | 212° |
| 2026-05-07 12:40 | 54.64327 | -58.70546 | 11535 ft | 155 kts | 212° |
| 2026-05-07 12:41 | 54.63437 | -58.71591 | 11537 ft | 155 kts | 212° |
| 2026-05-07 12:41 | 54.62548 | -58.72637 | 11537 ft | 155 kts | 212° |
| 2026-05-07 12:41 | 54.61655 | -58.73682 | 11538 ft | 155 kts | 212° |
| 2026-05-07 12:41 | 54.60760 | -58.74731 | 11537 ft | 156 kts | 212° |
| 2026-05-07 12:42 | 54.59862 | -58.75786 | 11538 ft | 156 kts | 212° |
| 2026-05-07 12:42 | 54.58976 | -58.76823 | 11537 ft | 156 kts | 212° |
| 2026-05-07 12:42 | 54.58072 | -58.77883 | 11537 ft | 155 kts | 212° |
| 2026-05-07 12:42 | 54.57190 | -58.78914 | 11537 ft | 155 kts | 212° |
| 2026-05-07 12:43 | 54.56296 | -58.79959 | 11535 ft | 155 kts | 212° |
| 2026-05-07 12:43 | 54.55404 | -58.81002 | 11534 ft | 155 kts | 212° |
| 2026-05-07 12:43 | 54.54513 | -58.82044 | 11533 ft | 155 kts | 212° |
| 2026-05-07 12:43 | 54.53624 | -58.83081 | 11532 ft | 154 kts | 212° |
| 2026-05-07 12:44 | 54.52735 | -58.84118 | 11531 ft | 154 kts | 212° |
| 2026-05-07 12:44 | 54.51845 | -58.85155 | 11530 ft | 154 kts | 212° |
| 2026-05-07 12:44 | 54.50956 | -58.86193 | 11530 ft | 154 kts | 212° |
| 2026-05-07 12:44 | 54.50067 | -58.87228 | 11531 ft | 155 kts | 212° |
| 2026-05-07 12:45 | 54.49174 | -58.88268 | 11530 ft | 155 kts | 212° |
| 2026-05-07 12:45 | 54.48286 | -58.89305 | 11530 ft | 154 kts | 212° |
| 2026-05-07 12:45 | 54.47394 | -58.90341 | 11531 ft | 155 kts | 212° |
| 2026-05-07 12:45 | 54.46503 | -58.91377 | 11532 ft | 155 kts | 212° |
| 2026-05-07 12:46 | 54.45609 | -58.92415 | 11529 ft | 155 kts | 212° |
| 2026-05-07 12:46 | 54.44715 | -58.93455 | 11529 ft | 155 kts | 212° |
| 2026-05-07 12:46 | 54.43824 | -58.94486 | 11529 ft | 154 kts | 212° |
| 2026-05-07 12:46 | 54.42935 | -58.95519 | 11528 ft | 154 kts | 212° |
| 2026-05-07 12:47 | 54.42049 | -58.96547 | 11526 ft | 154 kts | 212° |
| 2026-05-07 12:47 | 54.41159 | -58.97578 | 11527 ft | 154 kts | 212° |
| 2026-05-07 12:47 | 54.40274 | -58.98606 | 11529 ft | 153 kts | 212° |
| 2026-05-07 12:47 | 54.39395 | -58.99623 | 11529 ft | 152 kts | 212° |
| 2026-05-07 12:48 | 54.38524 | -59.00633 | 11531 ft | 151 kts | 212° |
| 2026-05-07 12:48 | 54.37654 | -59.01639 | 11530 ft | 150 kts | 212° |
| 2026-05-07 12:48 | 54.36790 | -59.02636 | 11530 ft | 150 kts | 212° |
| 2026-05-07 12:48 | 54.35927 | -59.03633 | 11528 ft | 150 kts | 212° |
| 2026-05-07 12:49 | 54.35062 | -59.04631 | 11532 ft | 150 kts | 212° |
| 2026-05-07 12:49 | 54.34208 | -59.05616 | 11532 ft | 150 kts | 212° |
| 2026-05-07 12:49 | 54.33340 | -59.06617 | 11531 ft | 150 kts | 212° |
| 2026-05-07 12:49 | 54.32464 | -59.07628 | 11530 ft | 150 kts | 212° |
| 2026-05-07 12:50 | 54.31611 | -59.08611 | 11521 ft | 149 kts | 212° |
| 2026-05-07 12:50 | 54.30749 | -59.09603 | 11521 ft | 149 kts | 212° |
| 2026-05-07 12:50 | 54.29892 | -59.10589 | 11517 ft | 148 kts | 212° |
| 2026-05-07 12:50 | 54.29034 | -59.11576 | 11521 ft | 149 kts | 212° |
| 2026-05-07 12:51 | 54.28171 | -59.12571 | 11523 ft | 150 kts | 212° |
| 2026-05-07 12:51 | 54.27307 | -59.13562 | 11522 ft | 150 kts | 212° |
| 2026-05-07 12:51 | 54.26442 | -59.14557 | 11522 ft | 150 kts | 212° |
| 2026-05-07 12:51 | 54.25578 | -59.15552 | 11524 ft | 149 kts | 212° |
| 2026-05-07 12:52 | 54.24713 | -59.16543 | 11525 ft | 150 kts | 212° |
| 2026-05-07 12:52 | 54.23847 | -59.17534 | 11523 ft | 150 kts | 212° |
| 2026-05-07 12:52 | 54.22985 | -59.18523 | 11519 ft | 149 kts | 212° |
| 2026-05-07 12:52 | 54.22114 | -59.19522 | 11379 ft | 155 kts | 212° |
| 2026-05-07 12:53 | 54.21190 | -59.20582 | 11084 ft | 164 kts | 212° |
| 2026-05-07 12:53 | 54.20229 | -59.21685 | 10795 ft | 169 kts | 212° |
| 2026-05-07 12:53 | 54.19259 | -59.22803 | 10502 ft | 165 kts | 213° |
| 2026-05-07 12:53 | 54.18330 | -59.23879 | 10191 ft | 158 kts | 212° |
| 2026-05-07 12:54 | 54.17432 | -59.24904 | 9856 ft | 154 kts | 212° |
| 2026-05-07 12:54 | 54.16548 | -59.25910 | 9497 ft | 152 kts | 212° |
| 2026-05-07 12:54 | 54.15676 | -59.26903 | 9156 ft | 150 kts | 212° |
| 2026-05-07 12:54 | 54.14814 | -59.27883 | 8833 ft | 148 kts | 211° |
| 2026-05-07 12:55 | 54.13954 | -59.28862 | 8518 ft | 148 kts | 211° |
| 2026-05-07 12:55 | 54.13096 | -59.29839 | 8204 ft | 149 kts | 211° |
| 2026-05-07 12:55 | 54.12526 | -59.30488 | 7999 ft | 149 kts | 211° |
| 2026-05-07 12:55 | 54.11660 | -59.31475 | 7698 ft | 150 kts | 210° |
| 2026-05-07 12:56 | 54.10512 | -59.32780 | 7426 ft | 145 kts | 210° |
| 2026-05-07 12:56 | 54.09972 | -59.33395 | 7420 ft | 137 kts | 210° |
| 2026-05-07 12:56 | 54.09201 | -59.34269 | 7412 ft | 130 kts | 210° |
| 2026-05-07 12:56 | 54.08457 | -59.35110 | 7412 ft | 127 kts | 210° |
| 2026-05-07 12:57 | 54.07731 | -59.35936 | 7411 ft | 125 kts | 210° |
| 2026-05-07 12:57 | 54.07010 | -59.36754 | 7414 ft | 123 kts | 210° |
| 2026-05-07 12:57 | 54.06297 | -59.37562 | 7412 ft | 123 kts | 210° |
| 2026-05-07 12:57 | 54.05590 | -59.38364 | 7415 ft | 123 kts | 210° |
| 2026-05-07 12:58 | 54.04866 | -59.39140 | 7412 ft | 123 kts | 206° |
| 2026-05-07 12:58 | 54.04147 | -59.39947 | 7413 ft | 125 kts | 211° |
| 2026-05-07 12:58 | 54.03435 | -59.40804 | 7416 ft | 126 kts | 211° |
| 2026-05-07 12:58 | 54.02715 | -59.41630 | 7480 ft | 123 kts | 210° |
| 2026-05-07 12:59 | 54.02008 | -59.42431 | 7475 ft | 126 kts | 210° |
| 2026-05-07 12:59 | 54.01283 | -59.43249 | 7553 ft | 122 kts | 210° |
| 2026-05-07 12:59 | 54.00589 | -59.44032 | 7675 ft | 117 kts | 210° |
| 2026-05-07 12:59 | 53.99914 | -59.44792 | 7703 ft | 119 kts | 210° |
| 2026-05-07 13:00 | 53.99221 | -59.45586 | 7706 ft | 121 kts | 211° |
| 2026-05-07 13:00 | 53.98514 | -59.46382 | 7712 ft | 123 kts | 210° |
| 2026-05-07 13:00 | 53.97795 | -59.47185 | 7715 ft | 125 kts | 210° |
| 2026-05-07 13:00 | 53.97072 | -59.47998 | 7712 ft | 125 kts | 210° |
| 2026-05-07 13:01 | 53.96354 | -59.48810 | 7715 ft | 123 kts | 210° |
| 2026-05-07 13:01 | 53.95655 | -59.49601 | 7717 ft | 119 kts | 210° |
| 2026-05-07 13:01 | 53.94976 | -59.50366 | 7710 ft | 115 kts | 210° |
| 2026-05-07 13:01 | 53.94320 | -59.51106 | 7704 ft | 111 kts | 210° |
| 2026-05-07 13:02 | 53.93678 | -59.51827 | 7699 ft | 111 kts | 210° |
| 2026-05-07 13:02 | 53.93036 | -59.52549 | 7696 ft | 110 kts | 210° |
| 2026-05-07 13:02 | 53.92400 | -59.53267 | 7699 ft | 110 kts | 210° |
| 2026-05-07 13:02 | 53.91760 | -59.53987 | 7700 ft | 111 kts | 210° |
| 2026-05-07 13:03 | 53.91112 | -59.54716 | 7699 ft | 112 kts | 210° |
| 2026-05-07 13:03 | 53.90463 | -59.55446 | 7701 ft | 112 kts | 210° |
| 2026-05-07 13:03 | 53.89815 | -59.56175 | 7700 ft | 112 kts | 210° |
| 2026-05-07 13:03 | 53.89169 | -59.56901 | 7699 ft | 111 kts | 210° |
| 2026-05-07 13:04 | 53.88529 | -59.57619 | 7699 ft | 111 kts | 210° |
| 2026-05-07 13:04 | 53.87885 | -59.58343 | 7694 ft | 111 kts | 210° |
| 2026-05-07 13:04 | 53.87238 | -59.59068 | 7695 ft | 112 kts | 210° |
| 2026-05-07 13:04 | 53.86589 | -59.59796 | 7697 ft | 112 kts | 210° |
| 2026-05-07 13:05 | 53.85935 | -59.60529 | 7701 ft | 114 kts | 210° |
| 2026-05-07 13:05 | 53.85274 | -59.61271 | 7700 ft | 114 kts | 210° |
| 2026-05-07 13:05 | 53.84616 | -59.62011 | 7702 ft | 113 kts | 210° |
| 2026-05-07 13:05 | 53.83956 | -59.62750 | 7703 ft | 114 kts | 210° |
| 2026-05-07 13:06 | 53.83294 | -59.63490 | 7699 ft | 114 kts | 210° |
| 2026-05-07 13:06 | 53.82634 | -59.64229 | 7699 ft | 114 kts | 210° |
| 2026-05-07 13:06 | 53.81983 | -59.64957 | 7697 ft | 113 kts | 210° |
| 2026-05-07 13:06 | 53.81330 | -59.65687 | 7696 ft | 112 kts | 210° |
| 2026-05-07 13:07 | 53.80680 | -59.66415 | 7694 ft | 112 kts | 210° |
| 2026-05-07 13:07 | 53.80032 | -59.67139 | 7694 ft | 112 kts | 210° |
| 2026-05-07 13:07 | 53.79384 | -59.67862 | 7693 ft | 111 kts | 210° |
| 2026-05-07 13:07 | 53.78738 | -59.68583 | 7688 ft | 111 kts | 210° |
| 2026-05-07 13:08 | 53.78093 | -59.69304 | 7684 ft | 111 kts | 210° |
| 2026-05-07 13:08 | 53.77445 | -59.70028 | 7685 ft | 112 kts | 210° |
| 2026-05-07 13:08 | 53.76795 | -59.70752 | 7685 ft | 112 kts | 210° |
| 2026-05-07 13:08 | 53.76144 | -59.71479 | 7685 ft | 112 kts | 210° |
| 2026-05-07 13:09 | 53.75491 | -59.72204 | 7688 ft | 112 kts | 209° |
| 2026-05-07 13:09 | 53.74835 | -59.72935 | 7686 ft | 113 kts | 210° |
| 2026-05-07 13:09 | 53.74178 | -59.73668 | 7699 ft | 113 kts | 209° |
| 2026-05-07 13:09 | 53.73527 | -59.74394 | 7698 ft | 112 kts | 208° |
| 2026-05-07 13:10 | 53.72884 | -59.75111 | 7692 ft | 110 kts | 208° |
| 2026-05-07 13:10 | 53.72244 | -59.75820 | 7690 ft | 110 kts | 208° |
| 2026-05-07 13:10 | 53.71610 | -59.76526 | 7689 ft | 109 kts | 208° |
| 2026-05-07 13:10 | 53.70976 | -59.77231 | 7688 ft | 109 kts | 208° |
| 2026-05-07 13:11 | 53.70345 | -59.77933 | 7686 ft | 109 kts | 208° |
| 2026-05-07 13:11 | 53.69711 | -59.78637 | 7680 ft | 109 kts | 208° |
| 2026-05-07 13:11 | 53.69078 | -59.79339 | 7679 ft | 109 kts | 208° |
| 2026-05-07 13:11 | 53.68448 | -59.80040 | 7679 ft | 109 kts | 208° |
| 2026-05-07 13:12 | 53.67817 | -59.80739 | 7674 ft | 108 kts | 208° |
| 2026-05-07 13:12 | 53.67184 | -59.81442 | 7674 ft | 108 kts | 208° |
| 2026-05-07 13:12 | 53.66542 | -59.82154 | 7575 ft | 114 kts | 208° |
| 2026-05-07 13:12 | 53.65863 | -59.82907 | 7423 ft | 120 kts | 209° |
| 2026-05-07 13:13 | 53.65152 | -59.83698 | 7265 ft | 124 kts | 209° |
| 2026-05-07 13:13 | 53.64428 | -59.84502 | 7098 ft | 126 kts | 209° |
| 2026-05-07 13:13 | 53.63690 | -59.85321 | 6931 ft | 128 kts | 209° |
| 2026-05-07 13:13 | 53.62942 | -59.86150 | 6759 ft | 129 kts | 209° |
| 2026-05-07 13:14 | 53.62188 | -59.86983 | 6584 ft | 130 kts | 210° |
| 2026-05-07 13:14 | 53.61430 | -59.87822 | 6409 ft | 131 kts | 209° |
| 2026-05-07 13:14 | 53.60661 | -59.88672 | 6231 ft | 133 kts | 210° |
| 2026-05-07 13:14 | 53.59887 | -59.89528 | 6050 ft | 134 kts | 210° |
| 2026-05-07 13:15 | 53.59104 | -59.90393 | 5873 ft | 135 kts | 210° |
| 2026-05-07 13:15 | 53.58315 | -59.91263 | 5691 ft | 135 kts | 210° |
| 2026-05-07 13:15 | 53.57535 | -59.92125 | 5514 ft | 134 kts | 209° |
| 2026-05-07 13:15 | 53.56761 | -59.92976 | 5336 ft | 132 kts | 210° |
| 2026-05-07 13:16 | 53.55995 | -59.93819 | 5164 ft | 133 kts | 210° |
| 2026-05-07 13:16 | 53.55208 | -59.94684 | 4983 ft | 137 kts | 210° |
| 2026-05-07 13:16 | 53.54406 | -59.95574 | 4799 ft | 139 kts | 210° |
| 2026-05-07 13:16 | 53.53592 | -59.96478 | 4612 ft | 141 kts | 209° |
| 2026-05-07 13:17 | 53.52767 | -59.97380 | 4424 ft | 141 kts | 208° |
| 2026-05-07 13:17 | 53.51961 | -59.98271 | 4233 ft | 137 kts | 209° |
| 2026-05-07 13:17 | 53.51170 | -59.99137 | 4053 ft | 135 kts | 208° |
| 2026-05-07 13:17 | 53.50385 | -60.00001 | 3874 ft | 135 kts | 208° |
| 2026-05-07 13:18 | 53.49591 | -60.00868 | 3693 ft | 137 kts | 208° |
| 2026-05-07 13:18 | 53.48789 | -60.01746 | 3525 ft | 139 kts | 208° |
| 2026-05-07 13:18 | 53.47971 | -60.02646 | 3328 ft | 142 kts | 208° |
| 2026-05-07 13:18 | 53.47251 | -60.03789 | 3140 ft | 150 kts | 224° |
| 2026-05-07 13:19 | 53.46645 | -60.05290 | 2942 ft | 155 kts | 228° |
| 2026-05-07 13:19 | 53.46036 | -60.06778 | 2736 ft | 157 kts | 228° |
| 2026-05-07 13:19 | 53.45401 | -60.08327 | 2522 ft | 161 kts | 229° |
| 2026-05-07 13:19 | 53.44760 | -60.09904 | 2298 ft | 163 kts | 230° |
| 2026-05-07 13:20 | 53.44142 | -60.11417 | 2090 ft | 152 kts | 230° |
| 2026-05-07 13:20 | 53.43553 | -60.12854 | 1885 ft | 147 kts | 230° |
| 2026-05-07 13:20 | 53.42997 | -60.14246 | 1688 ft | 145 kts | 232° |
| 2026-05-07 13:20 | 53.42413 | -60.15623 | 1656 ft | 150 kts | 229° |
| 2026-05-07 13:21 | 53.41828 | -60.17038 | 1650 ft | 145 kts | 231° |
| 2026-05-07 13:21 | 53.41265 | -60.18419 | 1644 ft | 142 kts | 231° |
| 2026-05-07 13:21 | 53.40710 | -60.19777 | 1646 ft | 140 kts | 231° |
| 2026-05-07 13:21 | 53.40176 | -60.21092 | 1649 ft | 130 kts | 232° |
| 2026-05-07 13:22 | 53.39686 | -60.22290 | 1591 ft | 124 kts | 230° |
| 2026-05-07 13:22 | 53.39173 | -60.23506 | 1394 ft | 132 kts | 232° |
| 2026-05-07 13:22 | 53.38643 | -60.24800 | 1131 ft | 137 kts | 233° |
| 2026-05-07 13:22 | 53.38108 | -60.26106 | 949 ft | 134 kts | 234° |
| 2026-05-07 13:23 | 53.37586 | -60.27373 | 804 ft | 131 kts | 234° |
| 2026-05-07 13:23 | 53.37080 | -60.28598 | 746 ft | 123 kts | 234° |
| 2026-05-07 13:23 | 53.36604 | -60.29747 | 689 ft | 120 kts | 236° |
| 2026-05-07 13:23 | 53.36113 | -60.30942 | 465 ft | 127 kts | 237° |
| 2026-05-07 13:24 | 53.35641 | -60.32096 | 256 ft | 116 kts | 236° |
| 2026-05-07 13:24 | 53.35205 | -60.33149 | 195 ft | 104 kts | 236° |
| 2026-05-07 13:24 | 53.34801 | -60.34119 | 143 ft | 100 kts | 237° |
| 2026-05-07 13:24 | 53.34413 | -60.35032 | 199 ft | 93 kts | 227° |
| 2026-05-07 13:25 | 53.33967 | -60.35857 | 389 ft | 100 kts | 230° |
| 2026-05-07 13:25 | 53.33632 | -60.36814 | 644 ft | 99 kts | 237° |
| 2026-05-07 13:25 | 53.33248 | -60.37878 | 706 ft | 114 kts | 242° |
| 2026-05-07 13:25 | 53.32823 | -60.38966 | 725 ft | 108 kts | 232° |
| 2026-05-07 13:26 | 53.32379 | -60.39969 | 433 ft | 108 kts | 239° |
| 2026-05-07 13:26 | 53.31971 | -60.40985 | 173 ft | 99 kts | 238° |
| 2026-05-07 13:26 | 53.31644 | -60.41825 | 155 ft | 73 kts | 230° |
| 2026-05-07 13:26 | 53.31396 | -60.42390 | 151 ft | 48 kts | 232° |
| 2026-05-07 13:27 | 53.31245 | -60.42753 | 156 ft | 35 kts | 235° |
| 2026-05-07 13:27 | 53.31195 | -60.42838 | 155 ft | 6 kts | 174° |
| 2026-05-07 13:27 | 53.31149 | -60.42789 | 156 ft | 9 kts | 147° |
| 2026-05-07 13:27 | 53.31083 | -60.42714 | 155 ft | 9 kts | 145° |
| 2026-05-07 13:28 | 53.31080 | -60.42665 | 156 ft | 5 kts | 56° |
| 2026-05-07 13:28 | 53.31099 | -60.42614 | 157 ft | 5 kts | 52° |
| 2026-05-07 13:28 | 53.31126 | -60.42555 | 157 ft | 8 kts | 54° |
| 2026-05-07 13:28 | 53.31160 | -60.42474 | 156 ft | 9 kts | 57° |
| 2026-05-07 13:29 | 53.31198 | -60.42379 | 156 ft | 10 kts | 55° |
| 2026-05-07 13:29 | 53.31236 | -60.42285 | 156 ft | 10 kts | 54° |
| 2026-05-07 13:29 | 53.31280 | -60.42178 | 154 ft | 12 kts | 55° |
| 2026-05-07 13:29 | 53.31328 | -60.42064 | 154 ft | 11 kts | 57° |
| 2026-05-07 13:30 | 53.31370 | -60.41963 | 155 ft | 10 kts | 54° |
| 2026-05-07 13:30 | 53.31411 | -60.41864 | 155 ft | 10 kts | 55° |
| 2026-05-07 13:30 | 53.31448 | -60.41778 | 157 ft | 8 kts | 54° |
| 2026-05-07 13:30 | 53.31474 | -60.41711 | 158 ft | 7 kts | 55° |
| 2026-05-07 13:31 | 53.31506 | -60.41636 | 158 ft | 9 kts | 51° |
| 2026-05-07 13:31 | 53.31547 | -60.41543 | 157 ft | 10 kts | 56° |
| 2026-05-07 13:31 | 53.31582 | -60.41452 | 158 ft | 10 kts | 53° |
| 2026-05-07 13:31 | 53.31599 | -60.41350 | 157 ft | 10 kts | 98° |
| 2026-05-07 13:32 | 53.31579 | -60.41221 | 154 ft | 10 kts | 140° |
| 2026-05-07 13:32 | 53.31514 | -60.41204 | 153 ft | 11 kts | 183° |
| 2026-05-07 13:32 | 53.31461 | -60.41248 | 153 ft | 0 kts | 181° |
| 2026-05-07 13:32 | 53.31449 | -60.41250 | 153 ft | 4 kts | 188° |
| 2026-05-07 13:33 | 53.31446 | -60.41250 | 153 ft | 0 kts | 173° |
| 2026-05-07 13:33 | 53.31439 | -60.41253 | 153 ft | 1 kts | 205° |
| 2026-05-07 13:33 | 53.31437 | -60.41253 | 153 ft | 0 kts | 187° |